Observation data for Amarillo 9 North Northeast on 08/14/2019      Previous  Date  Next       Current Mesonet Observations  Soil Data  Daily Summary Page  Observations in Plain Language
KAM2 140500Z 11008KT 23/19 A3018 RMK A01 T02320192  RH  078%=      5-min Rain = 0
KAM2 140501Z 11007KT 23/19 A3018 RMK A01 T02300192  RH  079%=      5-min Rain = 0
KAM2 140502Z 11009KT 23/19 A3018 RMK A01 T02290193  RH  080%=      5-min Rain = 0
KAM2 140503Z 11008KT 23/19 A3018 RMK A01 T02280193  RH  081%=      5-min Rain = 0
KAM2 140504Z 11008KT 23/19 A3018 RMK A01 T02270193  RH  081%=      5-min Rain = 0
KAM2 140505Z 11009KT 23/19 A3018 RMK A01 T02260193  RH  082%=      5-min Rain = 0
KAM2 140506Z 11007KT 23/19 A3018 RMK A01 T02250193  RH  082%=      5-min Rain = 0
KAM2 140507Z 11007KT 22/19 A3018 RMK A01 T02240193  RH  083%=      5-min Rain = 0
KAM2 140508Z 10008KT 22/19 A3019 RMK A01 T02240193  RH  083%=      5-min Rain = 0
KAM2 140509Z 10009KT 22/19 A3019 RMK A01 T02230192  RH  083%=      5-min Rain = 0
KAM2 140510Z 10010KT 22/19 A3019 RMK A01 T02230191  RH  082%=      5-min Rain = 0
KAM2 140524Z 11007KT 23/19 A302 RMK A01 T02300190  RH  078%=      5-min Rain = 0
KAM2 140525Z 11009KT 23/19 A302 RMK A01 T02300190  RH  078%=      5-min Rain = 0
KAM2 140526Z 11009KT 23/19 A302 RMK A01 T02310190  RH  078%=      5-min Rain = 0
KAM2 140527Z 11009KT 23/19 A302 RMK A01 T02310190  RH  078%=      5-min Rain = 0
KAM2 140528Z 12009KT 23/19 A302 RMK A01 T02310190  RH  078%=      5-min Rain = 0
KAM2 140529Z 11009KT 23/19 A302 RMK A01 T02310190  RH  078%=      5-min Rain = 0
KAM2 140530Z 12009KT 23/19 A302 RMK A01 T02310190  RH  078%=      5-min Rain = 0
KAM2 140531Z 12009KT 23/19 A302 RMK A01 T02310190  RH  078%=      5-min Rain = 0
KAM2 140532Z 12009KT 23/19 A302 RMK A01 T02320190  RH  077%=      5-min Rain = 0
KAM2 140533Z 12008KT 23/19 A302 RMK A01 T02320190  RH  077%=      5-min Rain = 0
KAM2 140534Z 13009KT 23/19 A302 RMK A01 T02320190  RH  078%=      5-min Rain = 0
KAM2 140535Z 13007KT 23/19 A302 RMK A01 T02310190  RH  078%=      5-min Rain = 0
KAM2 140536Z 13008KT 23/19 A302 RMK A01 T02310190  RH  078%=      5-min Rain = 0
KAM2 140537Z 14007KT 23/19 A302 RMK A01 T02310191  RH  078%=      5-min Rain = 0
KAM2 140538Z 13008KT 23/19 A302 RMK A01 T02300190  RH  078%=      5-min Rain = 0
KAM2 140539Z 13008KT 23/19 A302 RMK A01 T02290190  RH  078%=      5-min Rain = 0
KAM2 140540Z 14007KT 23/19 A302 RMK A01 T02290190  RH  079%=      5-min Rain = 0
KAM2 140541Z 13008KT 23/19 A302 RMK A01 T02290190  RH  079%=      5-min Rain = 0
KAM2 140542Z 13009KT 23/19 A302 RMK A01 T02280190  RH  079%=      5-min Rain = 0
KAM2 140543Z 13008KT 23/19 A302 RMK A01 T02280191  RH  079%=      5-min Rain = 0
KAM2 140544Z 13009KT 23/19 A302 RMK A01 T02280190  RH  079%=      5-min Rain = 0
KAM2 140545Z 13007KT 23/19 A302 RMK A01 T02270190  RH  080%=      5-min Rain = 0
KAM2 140546Z 13007KT 23/19 A302 RMK A01 T02270190  RH  080%=      5-min Rain = 0
KAM2 140547Z 12008KT 23/19 A302 RMK A01 T02260190  RH  080%=      5-min Rain = 0
KAM2 140548Z 13008KT 23/19 A302 RMK A01 T02260190  RH  080%=      5-min Rain = 0
KAM2 140549Z 12008KT 23/19 A302 RMK A01 T02260190  RH  080%=      5-min Rain = 0
KAM2 140550Z 13008KT 23/19 A3019 RMK A01 T02260189  RH  080%=      5-min Rain = 0
KAM2 140551Z 12008KT 23/19 A3019 RMK A01 T02260189  RH  080%=      5-min Rain = 0
KAM2 140552Z 12007KT 23/19 A302 RMK A01 T02260190  RH  080%=      5-min Rain = 0
KAM2 140553Z 12007KT 23/19 A302 RMK A01 T02260190  RH  080%=      5-min Rain = 0
KAM2 140554Z 12007KT 23/19 A302 RMK A01 T02270190  RH  080%=      5-min Rain = 0
KAM2 140555Z 12009KT 23/19 A302 RMK A01 T02270190  RH  079%=      5-min Rain = 0
KAM2 140556Z 12009KT 23/19 A302 RMK A01 T02270189  RH  079%=      5-min Rain = 0
KAM2 140557Z 12008KT 23/19 A302 RMK A01 T02270189  RH  079%=      5-min Rain = 0
KAM2 140558Z 12009KT 23/19 A302 RMK A01 T02270189  RH  079%=      5-min Rain = 0
KAM2 140559Z 12007KT 23/19 A302 RMK A01 T02270189  RH  079%=      5-min Rain = 0
KAM2 140600Z 12008KT 23/19 A302 RMK A01 T02270190  RH  079%=      5-min Rain = 0
KAM2 140601Z 12007KT 23/19 A302 RMK A01 T02270190  RH  079%=      5-min Rain = 0
KAM2 140602Z 11008KT 23/19 A302 RMK A01 T02270190  RH  079%=      5-min Rain = 0
KAM2 140603Z 12006KT 23/19 A302 RMK A01 T02270190  RH  079%=      5-min Rain = 0
KAM2 140604Z 10007KT 23/19 A302 RMK A01 T02270190  RH  079%=      5-min Rain = 0
KAM2 140605Z 05009G14KT 23/19 A3021 RMK A01 T02270190  RH  080%=      5-min Rain = 0
KAM2 140606Z 03015KT 23/19 A3022 RMK A01 T02260192  RH  081%=      5-min Rain = 0
KAM2 140607Z 04014KT 22/19 A3022 RMK A01 T02230190  RH  082%=      5-min Rain = 0
KAM2 140608Z 05015KT 22/19 A3022 RMK A01 T02220187  RH  080%=      5-min Rain = 0
KAM2 140609Z 06016KT 22/18 A3022 RMK A01 T02220180  RH  077%=      5-min Rain = 0
KAM2 140610Z 06020KT 22/17 A3022 RMK A01 T02200171  RH  074%=      5-min Rain = 0
KAM2 140611Z 06021G27KT 22/17 A3022 RMK A01 T02190165  RH  072%=      5-min Rain = 0
KAM2 140612Z 06023KT 22/16 A3023 RMK A01 T02160161  RH  071%=      5-min Rain = 0
KAM2 140613Z 06020G25KT 21/16 A3023 RMK A01 T02140158  RH  071%=      5-min Rain = 0
KAM2 140614Z 06019G24KT 21/16 A3023 RMK A01 T02120157  RH  071%=      5-min Rain = 0
KAM2 140615Z 06015G20KT 21/16 A3023 RMK A01 T02110156  RH  071%=      5-min Rain = 0
KAM2 140616Z 06015KT 21/16 A3023 RMK A01 T02100156  RH  071%=      5-min Rain = 0
KAM2 140617Z 06015KT 21/16 A3023 RMK A01 T02100156  RH  071%=      5-min Rain = 0
KAM2 140618Z 06013KT 21/16 A3023 RMK A01 T02090156  RH  072%=      5-min Rain = 0
KAM2 140619Z 06012G18KT 21/16 A3023 RMK A01 T02090156  RH  072%=      5-min Rain = 0
KAM2 140620Z 06017G22KT 21/15 A3023 RMK A01 T02080154  RH  071%=      5-min Rain = 0
KAM2 140621Z 06015KT 21/15 A3023 RMK A01 T02090153  RH  071%=      5-min Rain = 0
KAM2 140622Z 06012KT 21/15 A3023 RMK A01 T02080153  RH  070%=      5-min Rain = 0
KAM2 140623Z 07016KT 21/15 A3023 RMK A01 T02080153  RH  071%=      5-min Rain = 0
KAM2 140624Z 06013G18KT 21/15 A3023 RMK A01 T02070152  RH  071%=      5-min Rain = 0
KAM2 140625Z 06013KT 21/15 A3023 RMK A01 T02060152  RH  071%=      5-min Rain = 0
KAM2 140626Z 06013KT 21/15 A3023 RMK A01 T02060153  RH  071%=      5-min Rain = 0
KAM2 140627Z 06012G17KT 21/15 A3024 RMK A01 T02050152  RH  071%=      5-min Rain = 0
KAM2 140628Z 07013G18KT 21/15 A3024 RMK A01 T02050150  RH  071%=      5-min Rain = 0
KAM2 140629Z 06013G18KT 20/15 A3024 RMK A01 T02040151  RH  071%=      5-min Rain = 0
KAM2 140630Z 06014KT 20/15 A3024 RMK A01 T02040150  RH  071%=      5-min Rain = 0
KAM2 140631Z 06014G20KT 20/15 A3024 RMK A01 T02030149  RH  071%=      5-min Rain = 0
KAM2 140632Z 06015KT 20/15 A3024 RMK A01 T02030149  RH  071%=      5-min Rain = 0
KAM2 140633Z 06015G20KT 20/15 A3024 RMK A01 T02030148  RH  071%=      5-min Rain = 0
KAM2 140634Z 05015KT 20/15 A3024 RMK A01 T02030148  RH  071%=      5-min Rain = 0
KAM2 140635Z 06015G20KT 20/15 A3024 RMK A01 T02020148  RH  071%=      5-min Rain = 0
KAM2 140636Z 06012G17KT 20/15 A3024 RMK A01 T02020148  RH  071%=      5-min Rain = 0
KAM2 140637Z 06012G17KT 20/15 A3024 RMK A01 T02010149  RH  072%=      5-min Rain = 0
KAM2 140638Z 06013KT 20/15 A3024 RMK A01 T02010149  RH  072%=      5-min Rain = 0
KAM2 140639Z 06010KT 20/15 A3024 RMK A01 T02010149  RH  072%=      5-min Rain = 0
KAM2 140640Z 06010KT 20/15 A3024 RMK A01 T02000149  RH  072%=      5-min Rain = 0
KAM2 140641Z 06014KT 20/15 A3024 RMK A01 T02000149  RH  072%=      5-min Rain = 0
KAM2 140642Z 06016KT 20/15 A3024 RMK A01 T01990147  RH  072%=      5-min Rain = 0
KAM2 140643Z 06013KT 20/15 A3024 RMK A01 T01990147  RH  072%=      5-min Rain = 0
KAM2 140644Z 06011KT 20/15 A3024 RMK A01 T01990148  RH  072%=      5-min Rain = 0
KAM2 140645Z 06011KT 20/15 A3024 RMK A01 T01980148  RH  073%=      5-min Rain = 0
KAM2 140646Z 05011KT 20/15 A3023 RMK A01 T01980148  RH  073%=      5-min Rain = 0
KAM2 140647Z 06012KT 20/15 A3023 RMK A01 T01970148  RH  073%=      5-min Rain = 0
KAM2 140648Z 06012KT 20/15 A3023 RMK A01 T01970148  RH  073%=      5-min Rain = 0
KAM2 140649Z 06012KT 20/15 A3023 RMK A01 T01960147  RH  073%=      5-min Rain = 0
KAM2 140650Z 07008KT 20/15 A3023 RMK A01 T01960148  RH  074%=      5-min Rain = 0
KAM2 140651Z 07009G15KT 20/15 A3023 RMK A01 T01950148  RH  074%=      5-min Rain = 0
KAM2 140652Z 07009KT 20/15 A3022 RMK A01 T01950147  RH  074%=      5-min Rain = 0
KAM2 140653Z 06012KT 19/15 A3022 RMK A01 T01940146  RH  074%=      5-min Rain = 0
KAM2 140654Z 07011KT 19/15 A3022 RMK A01 T01940146  RH  073%=      5-min Rain = 0
KAM2 140655Z 07011KT 19/15 A3022 RMK A01 T01940145  RH  073%=      5-min Rain = 0
KAM2 140656Z 07009KT 19/15 A3022 RMK A01 T01940145  RH  073%=      5-min Rain = 0
KAM2 140657Z 06012G18KT 19/14 A3022 RMK A01 T01940144  RH  073%=      5-min Rain = 0
KAM2 140658Z 07013KT 19/14 A3022 RMK A01 T01940143  RH  072%=      5-min Rain = 0
KAM2 140659Z 07013KT 19/14 A3022 RMK A01 T01940142  RH  072%=      5-min Rain = 0
KAM2 140700Z 06012KT 19/14 A3022 RMK A01 T01940142  RH  072%=      5-min Rain = 0
KAM2 140701Z 06014KT 19/14 A3022 RMK A01 T01940142  RH  072%=      5-min Rain = 0
KAM2 140702Z 06010KT 19/14 A3022 RMK A01 T01940141  RH  072%=      5-min Rain = 0
KAM2 140703Z 06010KT 19/14 A3022 RMK A01 T01930142  RH  072%=      5-min Rain = 0
KAM2 140704Z 06011KT 19/14 A3023 RMK A01 T01930142  RH  072%=      5-min Rain = 0
KAM2 140705Z 05011KT 19/14 A3023 RMK A01 T01920141  RH  072%=      5-min Rain = 0
KAM2 140706Z 06011KT 19/14 A3023 RMK A01 T01920141  RH  073%=      5-min Rain = 0
KAM2 140707Z 06012KT 19/14 A3023 RMK A01 T01920141  RH  072%=      5-min Rain = 0
KAM2 140708Z 05011G16KT 19/14 A3022 RMK A01 T01920141  RH  072%=      5-min Rain = 0
KAM2 140709Z 06013KT 19/14 A3022 RMK A01 T01910140  RH  072%=      5-min Rain = 0
KAM2 140710Z 06012KT 19/14 A3023 RMK A01 T01910139  RH  072%=      5-min Rain = 0
KAM2 140711Z 06008KT 19/14 A3023 RMK A01 T01910140  RH  072%=      5-min Rain = 0
KAM2 140712Z 06011KT 19/14 A3023 RMK A01 T01910139  RH  072%=      5-min Rain = 0
KAM2 140713Z 06011KT 19/14 A3023 RMK A01 T01900138  RH  072%=      5-min Rain = 0
KAM2 140714Z 06010KT 19/14 A3023 RMK A01 T01900139  RH  072%=      5-min Rain = 0
KAM2 140715Z 06011G16KT 19/14 A3023 RMK A01 T01900138  RH  072%=      5-min Rain = 0
KAM2 140716Z 06012KT 19/14 A3023 RMK A01 T01900138  RH  072%=      5-min Rain = 0
KAM2 140717Z 06011KT 19/14 A3022 RMK A01 T01900138  RH  072%=      5-min Rain = 0
KAM2 140718Z 07010KT 19/14 A3022 RMK A01 T01900138  RH  072%=      5-min Rain = 0
KAM2 140719Z 07007KT 19/14 A3022 RMK A01 T01890138  RH  072%=      5-min Rain = 0
KAM2 140720Z 07009KT 19/14 A3022 RMK A01 T01880139  RH  073%=      5-min Rain = 0
KAM2 140721Z 06009KT 19/14 A3022 RMK A01 T01880139  RH  073%=      5-min Rain = 0
KAM2 140722Z 06010KT 19/14 A3022 RMK A01 T01880138  RH  073%=      5-min Rain = 0
KAM2 140723Z 06010KT 19/14 A3022 RMK A01 T01870138  RH  073%=      5-min Rain = 0
KAM2 140724Z 05010KT 19/14 A3022 RMK A01 T01870138  RH  073%=      5-min Rain = 0
KAM2 140725Z 05010KT 19/14 A3022 RMK A01 T01870138  RH  073%=      5-min Rain = 0
KAM2 140726Z 05008KT 19/14 A3022 RMK A01 T01870138  RH  073%=      5-min Rain = 0
KAM2 140727Z 05007KT 19/14 A3022 RMK A01 T01870138  RH  073%=      5-min Rain = 0
KAM2 140728Z 05008KT 19/14 A3022 RMK A01 T01860138  RH  074%=      5-min Rain = 0
KAM2 140729Z 06007KT 19/14 A3022 RMK A01 T01860138  RH  073%=      5-min Rain = 0
KAM2 140730Z 06008KT 19/14 A3022 RMK A01 T01860138  RH  074%=      5-min Rain = 0
KAM2 140731Z 06006KT 19/14 A3022 RMK A01 T01860138  RH  074%=      5-min Rain = 0
KAM2 140732Z 06006KT 19/14 A3022 RMK A01 T01850138  RH  074%=      5-min Rain = 0
KAM2 140733Z 06007KT 19/14 A3022 RMK A01 T01850138  RH  074%=      5-min Rain = 0
KAM2 140734Z 05009KT 19/14 A3022 RMK A01 T01850137  RH  073%=      5-min Rain = 0
KAM2 140735Z 04009KT 19/14 A3022 RMK A01 T01850136  RH  073%=      5-min Rain = 0
KAM2 140736Z 05009KT 19/14 A3022 RMK A01 T01850136  RH  073%=      5-min Rain = 0
KAM2 140737Z 06010KT 19/14 A3022 RMK A01 T01850136  RH  073%=      5-min Rain = 0
KAM2 140738Z 06009KT 19/14 A3022 RMK A01 T01850135  RH  073%=      5-min Rain = 0
KAM2 140739Z 06008KT 19/14 A3022 RMK A01 T01850136  RH  073%=      5-min Rain = 0
KAM2 140740Z 06007KT 19/14 A3022 RMK A01 T01850136  RH  073%=      5-min Rain = 0
KAM2 140741Z 06008KT 19/14 A3022 RMK A01 T01850137  RH  074%=      5-min Rain = 0
KAM2 140742Z 06010KT 18/14 A3022 RMK A01 T01840136  RH  074%=      5-min Rain = 0
KAM2 140743Z 06008KT 18/14 A3022 RMK A01 T01840136  RH  073%=      5-min Rain = 0
KAM2 140744Z 06009KT 19/14 A3022 RMK A01 T01850136  RH  073%=      5-min Rain = 0
KAM2 140745Z 06006KT 18/14 A3022 RMK A01 T01840135  RH  073%=      5-min Rain = 0
KAM2 140746Z 06008KT 18/14 A3022 RMK A01 T01840136  RH  073%=      5-min Rain = 0
KAM2 140747Z 07008KT 18/14 A3022 RMK A01 T01840136  RH  073%=      5-min Rain = 0
KAM2 140748Z 08007KT 18/14 A3022 RMK A01 T01840136  RH  074%=      5-min Rain = 0
KAM2 140749Z 07009KT 18/14 A3022 RMK A01 T01840136  RH  074%=      5-min Rain = 0
KAM2 140750Z 08006KT 18/14 A3022 RMK A01 T01830135  RH  074%=      5-min Rain = 0
KAM2 140751Z 08006KT 18/14 A3022 RMK A01 T01830136  RH  074%=      5-min Rain = 0
KAM2 140752Z 07007KT 18/14 A3022 RMK A01 T01830136  RH  074%=      5-min Rain = 0
KAM2 140753Z 08008KT 18/14 A3022 RMK A01 T01820136  RH  074%=      5-min Rain = 0
KAM2 140754Z 08009KT 18/14 A3022 RMK A01 T01820136  RH  074%=      5-min Rain = 0
KAM2 140755Z 08008KT 18/14 A3022 RMK A01 T01820136  RH  074%=      5-min Rain = 0
KAM2 140756Z 08008G13KT 18/14 A3021 RMK A01 T01830136  RH  074%=      5-min Rain = 0
KAM2 140757Z 08008KT 18/14 A3021 RMK A01 T01820136  RH  074%=      5-min Rain = 0
KAM2 140758Z 08009KT 18/14 A3021 RMK A01 T01820136  RH  074%=      5-min Rain = 0
KAM2 140759Z 08008KT 18/14 A3021 RMK A01 T01830136  RH  074%=      5-min Rain = 0
KAM2 140800Z 09007KT 18/14 A3021 RMK A01 T01830137  RH  075%=      5-min Rain = 0
KAM2 140801Z 08010KT 18/14 A3021 RMK A01 T01820136  RH  074%=      5-min Rain = 0
KAM2 140802Z 09008KT 18/14 A3021 RMK A01 T01820136  RH  074%=      5-min Rain = 0
KAM2 140803Z 09008KT 18/14 A3021 RMK A01 T01820137  RH  075%=      5-min Rain = 0
KAM2 140804Z 09007KT 18/14 A3021 RMK A01 T01830137  RH  075%=      5-min Rain = 0
KAM2 140805Z 09007KT 18/14 A302 RMK A01 T01830137  RH  075%=      5-min Rain = 0
KAM2 140806Z 09007KT 18/14 A3021 RMK A01 T01830138  RH  075%=      5-min Rain = 0
KAM2 140807Z 09008KT 18/14 A3021 RMK A01 T01830138  RH  075%=      5-min Rain = 0
KAM2 140808Z 09006KT 18/14 A3021 RMK A01 T01820137  RH  075%=      5-min Rain = 0
KAM2 140809Z 09007KT 18/14 A3021 RMK A01 T01830137  RH  075%=      5-min Rain = 0
KAM2 140810Z 08006KT 18/14 A3021 RMK A01 T01830136  RH  074%=      5-min Rain = 0
KAM2 140811Z 09005KT 18/14 A3021 RMK A01 T01820136  RH  074%=      5-min Rain = 0
KAM2 140812Z 08007KT 18/14 A3021 RMK A01 T01820137  RH  074%=      5-min Rain = 0
KAM2 140813Z 08006KT 18/14 A3021 RMK A01 T01820136  RH  074%=      5-min Rain = 0
KAM2 140814Z 08006KT 18/14 A3021 RMK A01 T01830136  RH  074%=      5-min Rain = 0
KAM2 140815Z 09007KT 18/14 A3021 RMK A01 T01820135  RH  074%=      5-min Rain = 0
KAM2 140816Z 08007KT 18/14 A3021 RMK A01 T01820135  RH  074%=      5-min Rain = 0
KAM2 140817Z 08007KT 18/13 A3021 RMK A01 T01820134  RH  073%=      5-min Rain = 0
KAM2 140818Z 08008KT 18/13 A3021 RMK A01 T01820133  RH  073%=      5-min Rain = 0
KAM2 140819Z 08006KT 18/13 A3021 RMK A01 T01830133  RH  072%=      5-min Rain = 0
KAM2 140820Z 07008KT 18/13 A3021 RMK A01 T01840133  RH  072%=      5-min Rain = 0
KAM2 140821Z 07006KT 18/13 A3021 RMK A01 T01840132  RH  072%=      5-min Rain = 0
KAM2 140822Z 07007KT 18/13 A3022 RMK A01 T01840132  RH  072%=      5-min Rain = 0
KAM2 140823Z 07005KT 18/13 A3022 RMK A01 T01840132  RH  072%=      5-min Rain = 0
KAM2 140824Z 08004KT 18/13 A3022 RMK A01 T01840133  RH  072%=      5-min Rain = 0
KAM2 140825Z 07004KT 18/13 A3022 RMK A01 T01840133  RH  072%=      5-min Rain = 0
KAM2 140826Z 07004KT 18/13 A3023 RMK A01 T01840132  RH  072%=      5-min Rain = 0
KAM2 140827Z 06004KT 18/13 A3023 RMK A01 T01840133  RH  072%=      5-min Rain = 0
KAM2 140828Z 06004KT 18/13 A3023 RMK A01 T01840132  RH  072%=      5-min Rain = 0
KAM2 140829Z 07005KT 18/13 A3023 RMK A01 T01840132  RH  071%=      5-min Rain = 0
KAM2 140830Z 07005KT 19/13 A3023 RMK A01 T01850131  RH  071%=      5-min Rain = 0
KAM2 140831Z 07005KT 19/13 A3023 RMK A01 T01860132  RH  071%=      5-min Rain = 0
KAM2 140832Z 06005KT 19/13 A3023 RMK A01 T01870133  RH  071%=      5-min Rain = 0
KAM2 140833Z 04005KT 19/13 A3023 RMK A01 T01870133  RH  071%=      5-min Rain = 0
KAM2 140834Z 07005KT 19/13 A3023 RMK A01 T01870133  RH  071%=      5-min Rain = 0
KAM2 140835Z 05004KT 19/13 A3023 RMK A01 T01870134  RH  071%=      5-min Rain = 0
KAM2 140836Z 05004KT 19/13 A3023 RMK A01 T01880134  RH  071%=      5-min Rain = 0
KAM2 140837Z 06005KT 19/13 A3022 RMK A01 T01880133  RH  070%=      5-min Rain = 0
KAM2 140838Z 07005KT 19/13 A3022 RMK A01 T01880133  RH  071%=      5-min Rain = 0
KAM2 140839Z 06005KT 19/13 A3022 RMK A01 T01870133  RH  071%=      5-min Rain = 0
KAM2 140840Z 06004KT 19/13 A3023 RMK A01 T01880133  RH  071%=      5-min Rain = 0
KAM2 140841Z 06005KT 19/13 A3023 RMK A01 T01880134  RH  071%=      5-min Rain = 0
KAM2 140842Z 06006KT 19/13 A3023 RMK A01 T01880134  RH  071%=      5-min Rain = 0
KAM2 140843Z 04004KT 19/13 A3023 RMK A01 T01880133  RH  070%=      5-min Rain = 0
KAM2 140844Z 04005KT 19/13 A3023 RMK A01 T01890134  RH  070%=      5-min Rain = 0
KAM2 140845Z 04008KT 19/13 A3024 RMK A01 T01890132  RH  070%=      5-min Rain = 0
KAM2 140846Z 04008KT 19/13 A3024 RMK A01 T01900132  RH  069%=      5-min Rain = 0
KAM2 140847Z 04008KT 19/13 A3024 RMK A01 T01900133  RH  069%=      5-min Rain = 0
KAM2 140848Z 03007KT 19/13 A3024 RMK A01 T01900133  RH  069%=      5-min Rain = 0
KAM2 140849Z 04007KT 19/13 A3024 RMK A01 T01910134  RH  070%=      5-min Rain = 0
KAM2 140850Z 03007KT 19/13 A3024 RMK A01 T01900134  RH  070%=      5-min Rain = 0
KAM2 140851Z 04008KT 19/13 A3024 RMK A01 T01900134  RH  070%=      5-min Rain = 0
KAM2 140852Z 04007KT 19/13 A3024 RMK A01 T01900134  RH  070%=      5-min Rain = 0
KAM2 140853Z 04008KT 19/13 A3024 RMK A01 T01900133  RH  069%=      5-min Rain = 0
KAM2 140854Z 04008KT 19/13 A3024 RMK A01 T01900134  RH  070%=      5-min Rain = 0
KAM2 140855Z 04006KT 19/14 A3024 RMK A01 T01900135  RH  070%=      5-min Rain = 0
KAM2 140856Z 03008KT 19/13 A3024 RMK A01 T01900134  RH  070%=      5-min Rain = 0
KAM2 140857Z 03008KT 19/13 A3025 RMK A01 T01900133  RH  069%=      5-min Rain = 0
KAM2 140858Z 03007KT 19/13 A3025 RMK A01 T01900134  RH  070%=      5-min Rain = 0
KAM2 140859Z 04008KT 19/14 A3025 RMK A01 T01900135  RH  070%=      5-min Rain = 0
KAM2 140900Z 03007G12KT 19/14 A3025 RMK A01 T01900135  RH  070%=      5-min Rain = 0
KAM2 140901Z 03008KT 19/13 A3025 RMK A01 T01900134  RH  070%=      5-min Rain = 0
KAM2 140902Z 02008KT 19/14 A3025 RMK A01 T01890135  RH  071%=      5-min Rain = 0
KAM2 140903Z 02008KT 19/13 A3025 RMK A01 T01880134  RH  071%=      5-min Rain = 0
KAM2 140904Z 02008KT 19/13 A3025 RMK A01 T01870134  RH  071%=      5-min Rain = 0
KAM2 140905Z 02007KT 19/13 A3025 RMK A01 T01870134  RH  072%=      5-min Rain = 0
KAM2 140906Z 01006KT 19/13 A3025 RMK A01 T01860134  RH  072%=      5-min Rain = 0
KAM2 140907Z 02006KT 19/13 A3025 RMK A01 T01850134  RH  072%=      5-min Rain = 0
KAM2 140908Z 03006KT 18/13 A3025 RMK A01 T01840134  RH  073%=      5-min Rain = 0
KAM2 140909Z 03005KT 18/14 A3025 RMK A01 T01840135  RH  073%=      5-min Rain = 0
KAM2 140910Z 02005KT 18/14 A3025 RMK A01 T01830135  RH  073%=      5-min Rain = 0
KAM2 140911Z 03004KT 18/14 A3025 RMK A01 T01820135  RH  074%=      5-min Rain = 0
KAM2 140912Z 02004KT 18/14 A3025 RMK A01 T01820135  RH  074%=      5-min Rain = 0
KAM2 140913Z 01006KT 18/14 A3025 RMK A01 T01810136  RH  075%=      5-min Rain = 0
KAM2 140914Z 01005KT 18/14 A3025 RMK A01 T01810135  RH  075%=      5-min Rain = 0
KAM2 140915Z 00004KT 18/14 A3025 RMK A01 T01810136  RH  075%=      5-min Rain = 0
KAM2 140916Z 00005KT 18/14 A3025 RMK A01 T01800135  RH  075%=      5-min Rain = 0
KAM2 140917Z 36004KT 18/14 A3025 RMK A01 T01800136  RH  076%=      5-min Rain = 0
KAM2 140918Z 01004KT 18/14 A3025 RMK A01 T01790137  RH  076%=      5-min Rain = 0
KAM2 140919Z 01004KT 18/14 A3025 RMK A01 T01790136  RH  076%=      5-min Rain = 0
KAM2 140920Z 01004KT 18/14 A3025 RMK A01 T01780136  RH  076%=      5-min Rain = 0
KAM2 140921Z 01004KT 18/14 A3025 RMK A01 T01780136  RH  076%=      5-min Rain = 0
KAM2 140922Z 01004KT 18/14 A3025 RMK A01 T01780137  RH  077%=      5-min Rain = 0
KAM2 140923Z 01005KT 18/14 A3025 RMK A01 T01770137  RH  077%=      5-min Rain = 0
KAM2 140924Z 00005KT 18/14 A3025 RMK A01 T01770137  RH  078%=      5-min Rain = 0
KAM2 140925Z 01006KT 18/14 A3025 RMK A01 T01760138  RH  078%=      5-min Rain = 0
KAM2 140926Z 01006KT 18/14 A3025 RMK A01 T01760137  RH  078%=      5-min Rain = 0
KAM2 140927Z 01006KT 18/14 A3025 RMK A01 T01760136  RH  078%=      5-min Rain = 0
KAM2 140928Z 01006KT 18/14 A3025 RMK A01 T01760137  RH  078%=      5-min Rain = 0
KAM2 140929Z 01006KT 18/14 A3025 RMK A01 T01750138  RH  079%=      5-min Rain = 0
KAM2 140930Z 00005KT 18/14 A3025 RMK A01 T01750139  RH  079%=      5-min Rain = 0
KAM2 140931Z 00006KT 17/14 A3025 RMK A01 T01740139  RH  080%=      5-min Rain = 0
KAM2 140932Z 00005KT 17/14 A3025 RMK A01 T01730139  RH  080%=      5-min Rain = 0
KAM2 140933Z 36005KT 17/14 A3025 RMK A01 T01730140  RH  081%=      5-min Rain = 0
KAM2 140934Z 36005KT 17/14 A3025 RMK A01 T01720140  RH  081%=      5-min Rain = 0
KAM2 140935Z 35006KT 17/14 A3025 RMK A01 T01710140  RH  082%=      5-min Rain = 0
KAM2 140936Z 36006KT 17/14 A3025 RMK A01 T01710139  RH  081%=      5-min Rain = 0
KAM2 140937Z 35006KT 17/14 A3025 RMK A01 T01710139  RH  082%=      5-min Rain = 0
KAM2 140938Z 35006KT 17/14 A3025 RMK A01 T01710139  RH  082%=      5-min Rain = 0
KAM2 140939Z 34006KT 17/14 A3025 RMK A01 T01710140  RH  082%=      5-min Rain = 0
KAM2 140940Z 34005KT 17/14 A3025 RMK A01 T01700140  RH  082%=      5-min Rain = 0
KAM2 140941Z 34006KT 17/14 A3026 RMK A01 T01700140  RH  082%=      5-min Rain = 0
KAM2 140942Z 34006KT 17/14 A3026 RMK A01 T01700140  RH  082%=      5-min Rain = 0
KAM2 140943Z 34006KT 17/14 A3026 RMK A01 T01700139  RH  082%=      5-min Rain = 0
KAM2 140944Z 34006KT 17/14 A3026 RMK A01 T01700138  RH  081%=      5-min Rain = 0
KAM2 140945Z 34006KT 17/14 A3026 RMK A01 T01710139  RH  081%=      5-min Rain = 0
KAM2 140946Z 34005KT 17/14 A3026 RMK A01 T01720139  RH  081%=      5-min Rain = 0
KAM2 140947Z 34005KT 17/14 A3026 RMK A01 T01720138  RH  081%=      5-min Rain = 0
KAM2 140948Z 34004KT 17/14 A3026 RMK A01 T01720139  RH  080%=      5-min Rain = 0
KAM2 140949Z 34005KT 17/14 A3026 RMK A01 T01730138  RH  080%=      5-min Rain = 0
KAM2 140950Z 34005KT 17/14 A3026 RMK A01 T01730139  RH  080%=      5-min Rain = 0
KAM2 140951Z 34004KT 17/14 A3026 RMK A01 T01730139  RH  080%=      5-min Rain = 0
KAM2 140952Z 34003KT 17/14 A3026 RMK A01 T01730139  RH  080%=      5-min Rain = 0
KAM2 140953Z 32002KT 17/14 A3026 RMK A01 T01730138  RH  080%=      5-min Rain = 0
KAM2 140954Z 32003KT 17/14 A3026 RMK A01 T01740138  RH  079%=      5-min Rain = 0
KAM2 140955Z 33005KT 17/14 A3026 RMK A01 T01740139  RH  080%=      5-min Rain = 0
KAM2 140956Z 34005KT 18/14 A3027 RMK A01 T01750140  RH  080%=      5-min Rain = 0
KAM2 140957Z 33003KT 17/14 A3026 RMK A01 T01740140  RH  080%=      5-min Rain = 0
KAM2 140958Z 33000KT 17/14 A3026 RMK A01 T01740141  RH  081%=      5-min Rain = 0
KAM2 140959Z 00000KT 18/14 A3026 RMK A01 T01750141  RH  081%=      5-min Rain = 0
KAM2 141000Z 35002KT 17/14 A3026 RMK A01 T01740141  RH  081%=      5-min Rain = 0
KAM2 141001Z 36004KT 18/14 A3026 RMK A01 T01750141  RH  080%=      5-min Rain = 0
KAM2 141002Z 00003KT 18/14 A3026 RMK A01 T01750142  RH  081%=      5-min Rain = 0
KAM2 141003Z 36001KT 18/14 A3026 RMK A01 T01750142  RH  081%=      5-min Rain = 0
KAM2 141004Z 36001KT 18/14 A3026 RMK A01 T01750142  RH  081%=      5-min Rain = 0
KAM2 141005Z 00001KT 18/14 A3026 RMK A01 T01750143  RH  081%=      5-min Rain = 0
KAM2 141006Z 35000KT 18/14 A3026 RMK A01 T01750141  RH  081%=      5-min Rain = 0
KAM2 141007Z 35004KT 18/14 A3026 RMK A01 T01750141  RH  081%=      5-min Rain = 0
KAM2 141008Z 35003KT 17/14 A3026 RMK A01 T01740141  RH  081%=      5-min Rain = 0
KAM2 141009Z 35002KT 17/14 A3026 RMK A01 T01740142  RH  081%=      5-min Rain = 0
KAM2 141010Z 35001KT 18/14 A3026 RMK A01 T01750142  RH  081%=      5-min Rain = 0
KAM2 141011Z 34003KT 18/14 A3026 RMK A01 T01750143  RH  082%=      5-min Rain = 0
KAM2 141012Z 35007KT 17/14 A3027 RMK A01 T01740143  RH  082%=      5-min Rain = 0
KAM2 141013Z 36008KT 17/14 A3027 RMK A01 T01740143  RH  082%=      5-min Rain = 0
KAM2 141014Z 36007KT 18/14 A3027 RMK A01 T01750143  RH  081%=      5-min Rain = 0
KAM2 141015Z 35007KT 18/14 A3027 RMK A01 T01750141  RH  080%=      5-min Rain = 0
KAM2 141016Z 35008KT 18/14 A3028 RMK A01 T01760142  RH  080%=      5-min Rain = 0
KAM2 141017Z 35009KT 18/14 A3028 RMK A01 T01760142  RH  080%=      5-min Rain = 0
KAM2 141018Z 36009KT 18/14 A3027 RMK A01 T01760140  RH  079%=      5-min Rain = 0
KAM2 141019Z 01008KT 18/14 A3027 RMK A01 T01770138  RH  078%=      5-min Rain = 0
KAM2 141020Z 00005KT 18/14 A3027 RMK A01 T01790138  RH  077%=      5-min Rain = 0
KAM2 141021Z 36007G12KT 18/14 A3027 RMK A01 T01790139  RH  077%=      5-min Rain = 0
KAM2 141022Z 00012KT 18/14 A3028 RMK A01 T01790138  RH  077%=      5-min Rain = 0
KAM2 141023Z 00013KT 18/14 A3028 RMK A01 T01790138  RH  077%=      5-min Rain = 0
KAM2 141024Z 01007G12KT 18/14 A3027 RMK A01 T01800138  RH  076%=      5-min Rain = 0
KAM2 141025Z 01006KT 18/14 A3027 RMK A01 T01800136  RH  075%=      5-min Rain = 0
KAM2 141026Z 00009G14KT 18/14 A3027 RMK A01 T01810136  RH  075%=      5-min Rain = 0
KAM2 141027Z 36014KT 18/14 A3028 RMK A01 T01810136  RH  075%=      5-min Rain = 0
KAM2 141028Z 00010KT 18/14 A3028 RMK A01 T01810137  RH  075%=      5-min Rain = 0
KAM2 141029Z 01007KT 18/14 A3027 RMK A01 T01810135  RH  075%=      5-min Rain = 0
KAM2 141030Z 02005KT 18/14 A3026 RMK A01 T01810135  RH  074%=      5-min Rain = 0
KAM2 141031Z 00005KT 18/13 A3026 RMK A01 T01820134  RH  074%=      5-min Rain = 0
KAM2 141032Z 01008KT 18/14 A3027 RMK A01 T01820135  RH  074%=      5-min Rain = 0
KAM2 141033Z 01009KT 18/14 A3027 RMK A01 T01820136  RH  074%=      5-min Rain = 0
KAM2 141034Z 00009KT 18/14 A3028 RMK A01 T01820136  RH  075%=      5-min Rain = 0
KAM2 141035Z 00008KT 18/14 A3028 RMK A01 T01820137  RH  075%=      5-min Rain = 0
KAM2 141036Z 00008KT 18/14 A3027 RMK A01 T01820137  RH  075%=      5-min Rain = 0
KAM2 141037Z 01005KT 18/14 A3027 RMK A01 T01820137  RH  075%=      5-min Rain = 0
KAM2 141038Z 02005KT 18/14 A3027 RMK A01 T01820138  RH  075%=      5-min Rain = 0
KAM2 141039Z 02004KT 18/14 A3027 RMK A01 T01820138  RH  075%=      5-min Rain = 0
KAM2 141040Z 03002KT 18/14 A3027 RMK A01 T01810139  RH  076%=      5-min Rain = 0
KAM2 141041Z 04003KT 18/14 A3027 RMK A01 T01810138  RH  076%=      5-min Rain = 0
KAM2 141042Z 05005KT 18/14 A3027 RMK A01 T01810137  RH  076%=      5-min Rain = 0
KAM2 141043Z 04003KT 18/14 A3027 RMK A01 T01810136  RH  075%=      5-min Rain = 0
KAM2 141044Z 05002KT 18/14 A3027 RMK A01 T01810137  RH  075%=      5-min Rain = 0
KAM2 141045Z 05003KT 18/14 A3027 RMK A01 T01810138  RH  076%=      5-min Rain = 0
KAM2 141046Z 06004KT 18/14 A3026 RMK A01 T01810139  RH  076%=      5-min Rain = 0
KAM2 141047Z 06003KT 18/14 A3026 RMK A01 T01810141  RH  077%=      5-min Rain = 0
KAM2 141048Z 05003KT 18/14 A3026 RMK A01 T01810140  RH  077%=      5-min Rain = 0
KAM2 141049Z 05003KT 18/14 A3026 RMK A01 T01800140  RH  077%=      5-min Rain = 0
KAM2 141050Z 07003KT 18/14 A3026 RMK A01 T01800140  RH  077%=      5-min Rain = 0
KAM2 141051Z 04003KT 18/14 A3026 RMK A01 T01800142  RH  079%=      5-min Rain = 0
KAM2 141052Z 05003KT 18/14 A3026 RMK A01 T01790143  RH  079%=      5-min Rain = 0
KAM2 141053Z 04004KT 18/14 A3026 RMK A01 T01790142  RH  079%=      5-min Rain = 0
KAM2 141054Z 03004KT 18/14 A3026 RMK A01 T01780142  RH  079%=      5-min Rain = 0
KAM2 141055Z 00004KT 18/15 A3026 RMK A01 T01780145  RH  081%=      5-min Rain = 0
KAM2 141056Z 01004KT 18/15 A3026 RMK A01 T01770145  RH  082%=      5-min Rain = 0
KAM2 141057Z 34005KT 18/15 A3026 RMK A01 T01760145  RH  082%=      5-min Rain = 0
KAM2 141058Z 34005KT 18/15 A3026 RMK A01 T01750146  RH  083%=      5-min Rain = 0
KAM2 141059Z 33006KT 17/15 A3026 RMK A01 T01740147  RH  084%=      5-min Rain = 0
KAM2 141100Z 33006KT 17/15 A3027 RMK A01 T01730147  RH  085%=      5-min Rain = 0
KAM2 141101Z 33006KT 17/15 A3027 RMK A01 T01720146  RH  085%=      5-min Rain = 0
KAM2 141102Z 33005KT 17/15 A3027 RMK A01 T01720146  RH  085%=      5-min Rain = 0
KAM2 141103Z 33004KT 17/15 A3027 RMK A01 T01720147  RH  085%=      5-min Rain = 0
KAM2 141104Z 33004KT 17/15 A3027 RMK A01 T01720147  RH  085%=      5-min Rain = 0
KAM2 141105Z 33003KT 17/15 A3027 RMK A01 T01720147  RH  085%=      5-min Rain = 0
KAM2 141106Z 32003KT 17/15 A3027 RMK A01 T01720146  RH  085%=      5-min Rain = 0
KAM2 141107Z 32003KT 17/15 A3027 RMK A01 T01720147  RH  085%=      5-min Rain = 0
KAM2 141108Z 32003KT 17/15 A3027 RMK A01 T01720148  RH  086%=      5-min Rain = 0
KAM2 141109Z 32003KT 17/15 A3027 RMK A01 T01720149  RH  087%=      5-min Rain = 0
KAM2 141110Z 33003KT 17/15 A3027 RMK A01 T01720149  RH  087%=      5-min Rain = 0
KAM2 141111Z 33002KT 17/15 A3027 RMK A01 T01720149  RH  086%=      5-min Rain = 0
KAM2 141112Z 33002KT 17/15 A3027 RMK A01 T01720148  RH  086%=      5-min Rain = 0
KAM2 141113Z 35001KT 17/15 A3027 RMK A01 T01720148  RH  086%=      5-min Rain = 0
KAM2 141114Z 35002KT 17/15 A3027 RMK A01 T01720149  RH  086%=      5-min Rain = 0
KAM2 141115Z 36002KT 17/15 A3026 RMK A01 T01720145  RH  084%=      5-min Rain = 0
KAM2 141116Z 36001KT 17/14 A3026 RMK A01 T01720141  RH  082%=      5-min Rain = 0
KAM2 141117Z 31000KT 17/15 A3026 RMK A01 T01740145  RH  083%=      5-min Rain = 0
KAM2 141118Z 30000KT 17/15 A3026 RMK A01 T01740146  RH  084%=      5-min Rain = 0
KAM2 141119Z 27001KT 17/14 A3026 RMK A01 T01740144  RH  083%=      5-min Rain = 0
KAM2 141120Z 28002KT 17/15 A3026 RMK A01 T01740147  RH  084%=      5-min Rain = 0
KAM2 141121Z 28002KT 17/15 A3026 RMK A01 T01740146  RH  084%=      5-min Rain = 0
KAM2 141122Z 28002KT 17/15 A3026 RMK A01 T01740148  RH  085%=      5-min Rain = 0
KAM2 141123Z 27003KT 17/15 A3026 RMK A01 T01740149  RH  085%=      5-min Rain = 0
KAM2 141124Z 28003KT 17/15 A3026 RMK A01 T01740148  RH  085%=      5-min Rain = 0
KAM2 141125Z 29003KT 17/15 A3026 RMK A01 T01730148  RH  085%=      5-min Rain = 0
KAM2 141126Z 29003KT 17/15 A3026 RMK A01 T01730148  RH  085%=      5-min Rain = 0
KAM2 141127Z 30002KT 17/15 A3026 RMK A01 T01730149  RH  086%=      5-min Rain = 0
KAM2 141128Z 32001KT 17/15 A3026 RMK A01 T01730149  RH  086%=      5-min Rain = 0
KAM2 141129Z 34001KT 17/15 A3026 RMK A01 T01730148  RH  085%=      5-min Rain = 0
KAM2 141130Z 34003KT 17/15 A3026 RMK A01 T01730145  RH  084%=      5-min Rain = 0
KAM2 141131Z 33004KT 17/15 A3027 RMK A01 T01730150  RH  086%=      5-min Rain = 0
KAM2 141132Z 33005KT 17/15 A3027 RMK A01 T01730151  RH  087%=      5-min Rain = 0
KAM2 141133Z 32004KT 17/15 A3027 RMK A01 T01730151  RH  087%=      5-min Rain = 0
KAM2 141134Z 32005KT 17/15 A3027 RMK A01 T01720150  RH  087%=      5-min Rain = 0
KAM2 141135Z 33006KT 17/15 A3027 RMK A01 T01720150  RH  087%=      5-min Rain = 0
KAM2 141136Z 32005KT 17/15 A3027 RMK A01 T01720148  RH  086%=      5-min Rain = 0
KAM2 141137Z 33005KT 17/15 A3027 RMK A01 T01720146  RH  085%=      5-min Rain = 0
KAM2 141138Z 33005KT 17/15 A3027 RMK A01 T01730146  RH  084%=      5-min Rain = 0
KAM2 141139Z 33005KT 17/15 A3027 RMK A01 T01730148  RH  085%=      5-min Rain = 0
KAM2 141140Z 34003KT 17/15 A3027 RMK A01 T01730148  RH  085%=      5-min Rain = 0
KAM2 141141Z 34003KT 17/15 A3027 RMK A01 T01730149  RH  086%=      5-min Rain = 0
KAM2 141142Z 34005KT 17/15 A3027 RMK A01 T01730149  RH  086%=      5-min Rain = 0
KAM2 141143Z 34003KT 17/15 A3027 RMK A01 T01720150  RH  086%=      5-min Rain = 0
KAM2 141144Z 33004KT 17/15 A3027 RMK A01 T01720150  RH  087%=      5-min Rain = 0
KAM2 141145Z 31003KT 17/15 A3027 RMK A01 T01720149  RH  087%=      5-min Rain = 0
KAM2 141146Z 32004KT 17/15 A3027 RMK A01 T01710150  RH  087%=      5-min Rain = 0
KAM2 141147Z 32004KT 17/15 A3027 RMK A01 T01710150  RH  087%=      5-min Rain = 0
KAM2 141148Z 33009KT 17/15 A3027 RMK A01 T01710148  RH  086%=      5-min Rain = 0
KAM2 141149Z 33006KT 17/14 A3027 RMK A01 T01730144  RH  084%=      5-min Rain = 0
KAM2 141150Z 33007KT 17/15 A3027 RMK A01 T01740146  RH  084%=      5-min Rain = 0
KAM2 141151Z 34005KT 17/15 A3027 RMK A01 T01730146  RH  084%=      5-min Rain = 0
KAM2 141152Z 34005KT 17/15 A3027 RMK A01 T01730147  RH  084%=      5-min Rain = 0
KAM2 141153Z 33005KT 17/15 A3027 RMK A01 T01730147  RH  085%=      5-min Rain = 0
KAM2 141154Z 33005KT 17/15 A3027 RMK A01 T01730147  RH  085%=      5-min Rain = 0
KAM2 141155Z 33003KT 17/15 A3026 RMK A01 T01730146  RH  084%=      5-min Rain = 0
KAM2 141156Z 33004KT 17/15 A3026 RMK A01 T01730146  RH  084%=      5-min Rain = 0
KAM2 141157Z 31003KT 17/15 A3026 RMK A01 T01720146  RH  085%=      5-min Rain = 0
KAM2 141158Z 30003KT 17/15 A3026 RMK A01 T01730147  RH  085%=      5-min Rain = 0
KAM2 141159Z 28003KT 17/15 A3026 RMK A01 T01720148  RH  086%=      5-min Rain = 0
KAM2 141200Z 28003KT 17/15 A3026 RMK A01 T01720148  RH  086%=      5-min Rain = 0
KAM2 141201Z 27002KT 17/15 A3026 RMK A01 T01720149  RH  086%=      5-min Rain = 0
KAM2 141202Z 27003KT 17/15 A3026 RMK A01 T01720149  RH  086%=      5-min Rain = 0
KAM2 141203Z 27002KT 17/15 A3026 RMK A01 T01720150  RH  087%=      5-min Rain = 0
KAM2 141204Z 25001KT 17/15 A3026 RMK A01 T01720150  RH  087%=      5-min Rain = 0
KAM2 141205Z 25001KT 17/15 A3026 RMK A01 T01720150  RH  087%=      5-min Rain = 0
KAM2 141206Z 26000KT 17/15 A3026 RMK A01 T01720150  RH  087%=      5-min Rain = 0
KAM2 141207Z 23000KT 17/15 A3026 RMK A01 T01720148  RH  086%=      5-min Rain = 0
KAM2 141208Z 24001KT 17/15 A3026 RMK A01 T01720150  RH  086%=      5-min Rain = 0
KAM2 141209Z 27001KT 17/15 A3026 RMK A01 T01730151  RH  087%=      5-min Rain = 0
KAM2 141210Z 27001KT 17/15 A3026 RMK A01 T01720150  RH  087%=      5-min Rain = 0
KAM2 141211Z 28002KT 17/15 A3026 RMK A01 T01730151  RH  087%=      5-min Rain = 0
KAM2 141212Z 32003KT 17/15 A3026 RMK A01 T01720150  RH  087%=      5-min Rain = 0
KAM2 141213Z 31002KT 17/15 A3026 RMK A01 T01730148  RH  086%=      5-min Rain = 0
KAM2 141214Z 32001KT 17/15 A3026 RMK A01 T01730148  RH  086%=      5-min Rain = 0
KAM2 141215Z 36001KT 17/15 A3026 RMK A01 T01730150  RH  086%=      5-min Rain = 0
KAM2 141216Z 03001KT 17/15 A3026 RMK A01 T01730151  RH  087%=      5-min Rain = 0
KAM2 141217Z 01000KT 17/15 A3026 RMK A01 T01730151  RH  087%=      5-min Rain = 0
KAM2 141218Z 02001KT 17/15 A3026 RMK A01 T01730152  RH  087%=      5-min Rain = 0
KAM2 141219Z 34000KT 17/15 A3026 RMK A01 T01730151  RH  087%=      5-min Rain = 0
KAM2 141220Z 32000KT 17/15 A3026 RMK A01 T01730148  RH  085%=      5-min Rain = 0
KAM2 141221Z 00000KT 17/15 A3026 RMK A01 T01730149  RH  085%=      5-min Rain = 0
KAM2 141222Z 34000KT 17/15 A3026 RMK A01 T01740149  RH  086%=      5-min Rain = 0
KAM2 141223Z 00000KT 17/15 A3026 RMK A01 T01740150  RH  086%=      5-min Rain = 0
KAM2 141224Z 29000KT 17/15 A3026 RMK A01 T01740150  RH  086%=      5-min Rain = 0
KAM2 141225Z 21001KT 18/15 A3027 RMK A01 T01750153  RH  087%=      5-min Rain = 0
KAM2 141226Z 22002KT 18/16 A3027 RMK A01 T01750155  RH  088%=      5-min Rain = 0
KAM2 141227Z 24002KT 18/15 A3027 RMK A01 T01750154  RH  087%=      5-min Rain = 0
KAM2 141228Z 27003KT 17/15 A3027 RMK A01 T01740154  RH  088%=      5-min Rain = 0
KAM2 141229Z 28006KT 17/15 A3027 RMK A01 T01740151  RH  086%=      5-min Rain = 0
KAM2 141230Z 29007KT 18/15 A3027 RMK A01 T01760148  RH  084%=      5-min Rain = 0
KAM2 141231Z 27006KT 18/15 A3027 RMK A01 T01780147  RH  082%=      5-min Rain = 0
KAM2 141232Z 27006KT 18/15 A3027 RMK A01 T01790149  RH  083%=      5-min Rain = 0
KAM2 141233Z 26007KT 18/15 A3027 RMK A01 T01790150  RH  083%=      5-min Rain = 0
KAM2 141234Z 26007KT 18/15 A3027 RMK A01 T01790151  RH  084%=      5-min Rain = 0
KAM2 141235Z 27007KT 18/15 A3027 RMK A01 T01780151  RH  084%=      5-min Rain = 0
KAM2 141236Z 26007KT 18/15 A3027 RMK A01 T01770150  RH  085%=      5-min Rain = 0
KAM2 141237Z 26006KT 18/15 A3027 RMK A01 T01760150  RH  085%=      5-min Rain = 0
KAM2 141238Z 26006KT 18/15 A3027 RMK A01 T01760151  RH  085%=      5-min Rain = 0
KAM2 141239Z 26006KT 18/15 A3027 RMK A01 T01760151  RH  085%=      5-min Rain = 0
KAM2 141240Z 26005KT 18/15 A3027 RMK A01 T01760151  RH  085%=      5-min Rain = 0
KAM2 141241Z 26005KT 18/15 A3027 RMK A01 T01760151  RH  085%=      5-min Rain = 0
KAM2 141242Z 26004KT 18/15 A3027 RMK A01 T01760151  RH  085%=      5-min Rain = 0
KAM2 141243Z 27004KT 18/15 A3027 RMK A01 T01770152  RH  085%=      5-min Rain = 0
KAM2 141244Z 28005KT 18/15 A3027 RMK A01 T01760152  RH  085%=      5-min Rain = 0
KAM2 141245Z 28004KT 18/15 A3027 RMK A01 T01770153  RH  086%=      5-min Rain = 0
KAM2 141246Z 27004KT 18/15 A3027 RMK A01 T01770153  RH  086%=      5-min Rain = 0
KAM2 141247Z 29003KT 18/15 A3027 RMK A01 T01760153  RH  086%=      5-min Rain = 0
KAM2 141248Z 28002KT 18/15 A3027 RMK A01 T01770153  RH  086%=      5-min Rain = 0
KAM2 141249Z 30001KT 18/15 A3027 RMK A01 T01760152  RH  086%=      5-min Rain = 0
KAM2 141250Z 32001KT 18/15 A3027 RMK A01 T01770153  RH  086%=      5-min Rain = 0
KAM2 141251Z 27000KT 18/15 A3027 RMK A01 T01770153  RH  086%=      5-min Rain = 0
KAM2 141252Z 14000KT 18/15 A3027 RMK A01 T01770154  RH  086%=      5-min Rain = 0
KAM2 141253Z 11001KT 18/16 A3027 RMK A01 T01770155  RH  087%=      5-min Rain = 0
KAM2 141254Z 12002KT 18/15 A3027 RMK A01 T01770154  RH  086%=      5-min Rain = 0
KAM2 141255Z 10002KT 18/16 A3027 RMK A01 T01770155  RH  087%=      5-min Rain = 0
KAM2 141256Z 10003KT 18/16 A3027 RMK A01 T01760155  RH  087%=      5-min Rain = 0
KAM2 141257Z 11004KT 18/16 A3026 RMK A01 T01760156  RH  088%=      5-min Rain = 0
KAM2 141258Z 13004KT 18/16 A3026 RMK A01 T01770156  RH  087%=      5-min Rain = 0
KAM2 141259Z 10001KT 18/16 A3026 RMK A01 T01770155  RH  087%=      5-min Rain = 0
KAM2 141300Z 21000KT 18/15 A3026 RMK A01 T01770154  RH  087%=      5-min Rain = 0
KAM2 141301Z 26001KT 18/15 A3026 RMK A01 T01770153  RH  086%=      5-min Rain = 0
KAM2 141302Z 00000KT 18/15 A3026 RMK A01 T01780150  RH  084%=      5-min Rain = 0
KAM2 141303Z 22002KT 18/15 A3026 RMK A01 T01790153  RH  085%=      5-min Rain = 0
KAM2 141304Z 27002KT 18/15 A3026 RMK A01 T01790153  RH  085%=      5-min Rain = 0
KAM2 141305Z 29003KT 18/15 A3026 RMK A01 T01800152  RH  084%=      5-min Rain = 0
KAM2 141306Z 28003KT 18/15 A3026 RMK A01 T01800152  RH  083%=      5-min Rain = 0
KAM2 141307Z 29002KT 18/15 A3026 RMK A01 T01810152  RH  083%=      5-min Rain = 0
KAM2 141308Z 31001KT 18/15 A3026 RMK A01 T01810153  RH  084%=      5-min Rain = 0
KAM2 141309Z 29002KT 18/15 A3026 RMK A01 T01810153  RH  084%=      5-min Rain = 0
KAM2 141310Z 27001KT 18/15 A3026 RMK A01 T01810154  RH  084%=      5-min Rain = 0
KAM2 141311Z 28000KT 18/16 A3026 RMK A01 T01810155  RH  085%=      5-min Rain = 0
KAM2 141312Z 12000KT 18/15 A3025 RMK A01 T01810154  RH  084%=      5-min Rain = 0
KAM2 141313Z 13002KT 18/15 A3025 RMK A01 T01810154  RH  084%=      5-min Rain = 0
KAM2 141314Z 12003KT 18/16 A3025 RMK A01 T01810155  RH  085%=      5-min Rain = 0
KAM2 141315Z 12003KT 18/16 A3025 RMK A01 T01810156  RH  085%=      5-min Rain = 0
KAM2 141316Z 14002KT 18/16 A3025 RMK A01 T01810155  RH  085%=      5-min Rain = 0
KAM2 141317Z 17002KT 18/15 A3024 RMK A01 T01810152  RH  083%=      5-min Rain = 0
KAM2 141318Z 16002KT 18/15 A3024 RMK A01 T01820151  RH  082%=      5-min Rain = 0
KAM2 141319Z 14003KT 18/15 A3024 RMK A01 T01820152  RH  083%=      5-min Rain = 0
KAM2 141320Z 13004KT 18/16 A3024 RMK A01 T01830155  RH  084%=      5-min Rain = 0
KAM2 141321Z 13005KT 18/16 A3023 RMK A01 T01820156  RH  084%=      5-min Rain = 0
KAM2 141322Z 13004KT 18/16 A3023 RMK A01 T01820157  RH  085%=      5-min Rain = 0
KAM2 141323Z 13004KT 18/16 A3023 RMK A01 T01820156  RH  085%=      5-min Rain = 0
KAM2 141324Z 13004KT 18/16 A3023 RMK A01 T01820157  RH  085%=      5-min Rain = 0
KAM2 141325Z 15003KT 18/16 A3023 RMK A01 T01820156  RH  085%=      5-min Rain = 0
KAM2 141326Z 16003KT 18/16 A3023 RMK A01 T01830156  RH  084%=      5-min Rain = 0
KAM2 141327Z 17004KT 18/16 A3023 RMK A01 T01830157  RH  084%=      5-min Rain = 0
KAM2 141328Z 18004KT 18/16 A3023 RMK A01 T01830155  RH  084%=      5-min Rain = 0
KAM2 141329Z 19003KT 18/16 A3024 RMK A01 T01840157  RH  084%=      5-min Rain = 0
KAM2 141330Z 19003KT 18/16 A3024 RMK A01 T01830157  RH  085%=      5-min Rain = 0
KAM2 141331Z 18003KT 18/16 A3024 RMK A01 T01840158  RH  085%=      5-min Rain = 0
KAM2 141332Z 19003KT 18/16 A3024 RMK A01 T01830157  RH  084%=      5-min Rain = 0
KAM2 141333Z 18003KT 18/16 A3024 RMK A01 T01830156  RH  084%=      5-min Rain = 0
KAM2 141334Z 17003KT 18/16 A3023 RMK A01 T01840155  RH  084%=      5-min Rain = 0
KAM2 141335Z 15003KT 18/15 A3023 RMK A01 T01840154  RH  083%=      5-min Rain = 0
KAM2 141336Z 15004KT 18/16 A3023 RMK A01 T01840156  RH  084%=      5-min Rain = 0
KAM2 141337Z 15004KT 18/16 A3023 RMK A01 T01840158  RH  085%=      5-min Rain = 0
KAM2 141338Z 15004KT 18/16 A3023 RMK A01 T01840158  RH  085%=      5-min Rain = 0
KAM2 141339Z 15004KT 18/16 A3022 RMK A01 T01840158  RH  084%=      5-min Rain = 0
KAM2 141340Z 15004KT 19/16 A3022 RMK A01 T01850158  RH  085%=      5-min Rain = 0
KAM2 141341Z 16004KT 18/16 A3022 RMK A01 T01840155  RH  083%=      5-min Rain = 0
KAM2 141342Z 16003KT 19/16 A3022 RMK A01 T01850156  RH  083%=      5-min Rain = 0
KAM2 141343Z 16004KT 19/16 A3022 RMK A01 T01850157  RH  083%=      5-min Rain = 0
KAM2 141344Z 16005KT 19/16 A3022 RMK A01 T01850157  RH  083%=      5-min Rain = 0
KAM2 141345Z 16004KT 19/16 A3022 RMK A01 T01860157  RH  084%=      5-min Rain = 0
KAM2 141346Z 16004KT 19/16 A3022 RMK A01 T01850157  RH  084%=      5-min Rain = 0
KAM2 141347Z 17005KT 19/16 A3022 RMK A01 T01850158  RH  084%=      5-min Rain = 0
KAM2 141348Z 17005KT 19/16 A3021 RMK A01 T01850158  RH  084%=      5-min Rain = 0
KAM2 141349Z 18005KT 19/16 A3021 RMK A01 T01850158  RH  084%=      5-min Rain = 0
KAM2 141350Z 18005KT 19/16 A3021 RMK A01 T01850159  RH  085%=      5-min Rain = 0
KAM2 141351Z 18005KT 19/16 A3021 RMK A01 T01860159  RH  085%=      5-min Rain = 0
KAM2 141352Z 19005KT 19/16 A3021 RMK A01 T01860159  RH  085%=      5-min Rain = 0
KAM2 141353Z 19004KT 19/16 A3021 RMK A01 T01860160  RH  085%=      5-min Rain = 0
KAM2 141354Z 19004KT 19/16 A3021 RMK A01 T01860160  RH  085%=      5-min Rain = 0
KAM2 141355Z 20004KT 19/16 A3021 RMK A01 T01870161  RH  085%=      5-min Rain = 0
KAM2 141356Z 19004KT 19/16 A3021 RMK A01 T01870160  RH  084%=      5-min Rain = 0
KAM2 141357Z 20005KT 19/16 A3021 RMK A01 T01870160  RH  084%=      5-min Rain = 0
KAM2 141358Z 20004KT 19/16 A3021 RMK A01 T01880160  RH  084%=      5-min Rain = 0
KAM2 141359Z 20004KT 19/16 A3021 RMK A01 T01880161  RH  084%=      5-min Rain = 0
KAM2 141400Z 19004KT 19/16 A3021 RMK A01 T01880161  RH  084%=      5-min Rain = 0
KAM2 141401Z 19004KT 19/16 A3021 RMK A01 T01890161  RH  084%=      5-min Rain = 0
KAM2 141402Z 18004KT 19/16 A3021 RMK A01 T01890159  RH  083%=      5-min Rain = 0
KAM2 141403Z 18004KT 19/16 A3021 RMK A01 T01890161  RH  083%=      5-min Rain = 0
KAM2 141404Z 19004KT 19/16 A3021 RMK A01 T01900160  RH  083%=      5-min Rain = 0
KAM2 141405Z 20003KT 19/16 A3022 RMK A01 T01900160  RH  083%=      5-min Rain = 0
KAM2 141406Z 20003KT 19/16 A3022 RMK A01 T01900162  RH  083%=      5-min Rain = 0
KAM2 141407Z 23002KT 19/16 A3022 RMK A01 T01910162  RH  083%=      5-min Rain = 0
KAM2 141408Z 24004KT 19/16 A3022 RMK A01 T01910162  RH  083%=      5-min Rain = 0
KAM2 141409Z 25006KT 19/16 A3023 RMK A01 T01920162  RH  083%=      5-min Rain = 0
KAM2 141410Z 25006KT 19/16 A3023 RMK A01 T01920163  RH  083%=      5-min Rain = 0
KAM2 141411Z 24007KT 19/16 A3023 RMK A01 T01930163  RH  083%=      5-min Rain = 0
KAM2 141412Z 23004KT 19/16 A3023 RMK A01 T01930163  RH  082%=      5-min Rain = 0
KAM2 141413Z 22003KT 19/16 A3023 RMK A01 T01940162  RH  082%=      5-min Rain = 0
KAM2 141414Z 20003KT 19/16 A3023 RMK A01 T01940162  RH  082%=      5-min Rain = 0
KAM2 141415Z 22002KT 19/16 A3023 RMK A01 T01940162  RH  082%=      5-min Rain = 0
KAM2 141416Z 24005KT 19/16 A3023 RMK A01 T01940162  RH  082%=      5-min Rain = 0
KAM2 141417Z 24004KT 20/16 A3023 RMK A01 T01950161  RH  081%=      5-min Rain = 0
KAM2 141418Z 24006KT 20/16 A3023 RMK A01 T01960160  RH  079%=      5-min Rain = 0
KAM2 141419Z 24006KT 20/16 A3023 RMK A01 T01970159  RH  079%=      5-min Rain = 0
KAM2 141420Z 23007KT 20/16 A3023 RMK A01 T01970158  RH  078%=      5-min Rain = 0
KAM2 141421Z 23006KT 20/16 A3023 RMK A01 T01980156  RH  077%=      5-min Rain = 0
KAM2 141422Z 22004KT 20/16 A3023 RMK A01 T01990156  RH  076%=      5-min Rain = 0
KAM2 141423Z 22003KT 20/16 A3023 RMK A01 T01990156  RH  076%=      5-min Rain = 0
KAM2 141424Z 23004KT 20/16 A3023 RMK A01 T02000156  RH  076%=      5-min Rain = 0
KAM2 141425Z 22005KT 20/15 A3023 RMK A01 T02000154  RH  075%=      5-min Rain = 0
KAM2 141426Z 22005KT 20/15 A3023 RMK A01 T02010153  RH  074%=      5-min Rain = 0
KAM2 141427Z 21004KT 20/16 A3023 RMK A01 T02010155  RH  075%=      5-min Rain = 0
KAM2 141428Z 20003KT 20/16 A3023 RMK A01 T02020156  RH  075%=      5-min Rain = 0
KAM2 141429Z 21003KT 20/16 A3023 RMK A01 T02020156  RH  075%=      5-min Rain = 0
KAM2 141430Z 20004KT 20/16 A3023 RMK A01 T02030158  RH  075%=      5-min Rain = 0
KAM2 141431Z 21002KT 20/16 A3023 RMK A01 T02030157  RH  075%=      5-min Rain = 0
KAM2 141432Z 23002KT 20/16 A3023 RMK A01 T02030159  RH  075%=      5-min Rain = 0
KAM2 141433Z 23002KT 20/16 A3023 RMK A01 T02040159  RH  075%=      5-min Rain = 0
KAM2 141434Z 23003KT 21/16 A3023 RMK A01 T02050158  RH  075%=      5-min Rain = 0
KAM2 141435Z 24003KT 21/16 A3024 RMK A01 T02050157  RH  074%=      5-min Rain = 0
KAM2 141436Z 25003KT 21/16 A3024 RMK A01 T02060156  RH  073%=      5-min Rain = 0
KAM2 141437Z 25003KT 21/16 A3024 RMK A01 T02070157  RH  073%=      5-min Rain = 0
KAM2 141438Z 25002KT 21/16 A3024 RMK A01 T02080158  RH  073%=      5-min Rain = 0
KAM2 141439Z 25002KT 21/16 A3024 RMK A01 T02090159  RH  073%=      5-min Rain = 0
KAM2 141440Z 25003KT 21/16 A3024 RMK A01 T02100158  RH  072%=      5-min Rain = 0
KAM2 141441Z 24000KT 21/16 A3024 RMK A01 T02110159  RH  072%=      5-min Rain = 0
KAM2 141442Z 36000KT 21/16 A3024 RMK A01 T02110156  RH  071%=      5-min Rain = 0
KAM2 141443Z 35005KT 21/16 A3024 RMK A01 T02120160  RH  072%=      5-min Rain = 0
KAM2 141444Z 00013KT 21/16 A3025 RMK A01 T02140163  RH  073%=      5-min Rain = 0
KAM2 141445Z 36013KT 21/16 A3025 RMK A01 T02140164  RH  073%=      5-min Rain = 0
KAM2 141446Z 35008G13KT 21/16 A3024 RMK A01 T02120161  RH  073%=      5-min Rain = 0
KAM2 141447Z 35003KT 21/16 A3024 RMK A01 T02100157  RH  072%=      5-min Rain = 0
KAM2 141448Z 00001KT 21/16 A3024 RMK A01 T02090156  RH  072%=      5-min Rain = 0
KAM2 141449Z 05001KT 21/16 A3024 RMK A01 T02090157  RH  072%=      5-min Rain = 0
KAM2 141450Z 07002KT 21/16 A3024 RMK A01 T02090156  RH  072%=      5-min Rain = 0
KAM2 141451Z 05001KT 21/16 A3024 RMK A01 T02100156  RH  071%=      5-min Rain = 0
KAM2 141452Z 36002KT 21/15 A3024 RMK A01 T02100154  RH  070%=      5-min Rain = 0
KAM2 141453Z 35005KT 21/16 A3024 RMK A01 T02110160  RH  073%=      5-min Rain = 0
KAM2 141454Z 35007KT 21/16 A3025 RMK A01 T02110161  RH  073%=      5-min Rain = 0
KAM2 141455Z 33004KT 21/16 A3024 RMK A01 T02110160  RH  072%=      5-min Rain = 0
KAM2 141456Z 31004KT 21/16 A3024 RMK A01 T02110159  RH  072%=      5-min Rain = 0
KAM2 141457Z 34006KT 21/16 A3024 RMK A01 T02110160  RH  072%=      5-min Rain = 0
KAM2 141458Z 34009KT 21/16 A3025 RMK A01 T02110163  RH  074%=      5-min Rain = 0
KAM2 141459Z 35011KT 21/16 A3025 RMK A01 T02110164  RH  074%=      5-min Rain = 0
KAM2 141500Z 35011KT 21/16 A3025 RMK A01 T02110164  RH  075%=      5-min Rain = 0
KAM2 141501Z 35008KT 21/16 A3025 RMK A01 T02110162  RH  074%=      5-min Rain = 0
KAM2 141502Z 34006KT 21/16 A3025 RMK A01 T02090158  RH  073%=      5-min Rain = 0
KAM2 141503Z 34005KT 21/16 A3025 RMK A01 T02090157  RH  072%=      5-min Rain = 0
KAM2 141504Z 34006KT 21/16 A3025 RMK A01 T02080158  RH  073%=      5-min Rain = 0
KAM2 141505Z 34009KT 21/16 A3025 RMK A01 T02080159  RH  074%=      5-min Rain = 0
KAM2 141506Z 34008KT 21/16 A3026 RMK A01 T02080161  RH  074%=      5-min Rain = 0
KAM2 141507Z 33008KT 21/16 A3025 RMK A01 T02080161  RH  075%=      5-min Rain = 0
KAM2 141508Z 34006KT 21/16 A3025 RMK A01 T02070159  RH  074%=      5-min Rain = 0
KAM2 141509Z 35006KT 21/16 A3026 RMK A01 T02070160  RH  074%=      5-min Rain = 0
KAM2 141510Z 35007KT 21/16 A3026 RMK A01 T02070161  RH  075%=      5-min Rain = 0
KAM2 141511Z 35009KT 21/16 A3026 RMK A01 T02070160  RH  074%=      5-min Rain = 0
KAM2 141512Z 35009KT 21/16 A3026 RMK A01 T02070159  RH  074%=      5-min Rain = 0
KAM2 141513Z 35005KT 21/16 A3026 RMK A01 T02080159  RH  073%=      5-min Rain = 0
KAM2 141514Z 34006KT 21/16 A3026 RMK A01 T02080158  RH  073%=      5-min Rain = 0
KAM2 141515Z 34008KT 21/16 A3026 RMK A01 T02090157  RH  072%=      5-min Rain = 0
KAM2 141516Z 36010KT 21/16 A3027 RMK A01 T02090159  RH  073%=      5-min Rain = 0
KAM2 141517Z 01012G18KT 21/16 A3028 RMK A01 T02090159  RH  073%=      5-min Rain = 0
KAM2 141518Z 02019KT 21/16 A303 RMK A01 T02100160  RH  073%=      5-min Rain = 0
KAM2 141519Z 02016G22KT 21/16 A303 RMK A01 T02120161  RH  073%=      5-min Rain = 0
KAM2 141520Z 01017G22KT 22/16 A303 RMK A01 T02150159  RH  071%=      5-min Rain = 0
KAM2 141521Z 01013KT 22/15 A3029 RMK A01 T02200152  RH  065%=      5-min Rain = 0
KAM2 141522Z 01007KT 22/15 A3028 RMK A01 T02240145  RH  061%=      5-min Rain = 0
KAM2 141523Z 00009G14KT 23/15 A3029 RMK A01 T02280148  RH  061%=      5-min Rain = 0
KAM2 141524Z 02017KT 23/15 A303 RMK A01 T02310148  RH  060%=      5-min Rain = 0
KAM2 141525Z 03016KT 23/15 A3031 RMK A01 T02310148  RH  059%=      5-min Rain = 0
KAM2 141526Z 04015G20KT 23/15 A3031 RMK A01 T02300151  RH  061%=      5-min Rain = 0
KAM2 141527Z 06010KT 23/15 A303 RMK A01 T02270153  RH  063%=      5-min Rain = 0
KAM2 141528Z 05004KT 23/15 A3029 RMK A01 T02250153  RH  064%=      5-min Rain = 0
KAM2 141529Z 02003KT 22/15 A3028 RMK A01 T02240148  RH  062%=      5-min Rain = 0
KAM2 141530Z 03006KT 22/15 A3029 RMK A01 T02240146  RH  061%=      5-min Rain = 0
KAM2 141531Z 03012KT 22/15 A303 RMK A01 T02240150  RH  063%=      5-min Rain = 0
KAM2 141532Z 03011KT 22/15 A303 RMK A01 T02240151  RH  063%=      5-min Rain = 0
KAM2 141533Z 03010KT 22/15 A303 RMK A01 T02240153  RH  064%=      5-min Rain = 0
KAM2 141534Z 03009KT 22/16 A303 RMK A01 T02240155  RH  065%=      5-min Rain = 0
KAM2 141535Z 02008KT 22/16 A303 RMK A01 T02240156  RH  065%=      5-min Rain = 0
KAM2 141536Z 02011KT 22/16 A303 RMK A01 T02240155  RH  065%=      5-min Rain = 0
KAM2 141537Z 03011KT 23/15 A303 RMK A01 T02250152  RH  063%=      5-min Rain = 0
KAM2 141538Z 02009KT 23/15 A303 RMK A01 T02250151  RH  063%=      5-min Rain = 0
KAM2 141539Z 03011KT 23/15 A303 RMK A01 T02260154  RH  064%=      5-min Rain = 0
KAM2 141540Z 03010KT 23/15 A303 RMK A01 T02260153  RH  063%=      5-min Rain = 0
KAM2 141541Z 03009KT 23/15 A303 RMK A01 T02270154  RH  063%=      5-min Rain = 0
KAM2 141542Z 04009KT 23/16 A3029 RMK A01 T02290156  RH  063%=      5-min Rain = 0
KAM2 141543Z 05009KT 23/16 A3029 RMK A01 T02330157  RH  062%=      5-min Rain = 0
KAM2 141544Z 06011G16KT 24/16 A3029 RMK A01 T02370159  RH  061%=      5-min Rain = 0
KAM2 141545Z 06010G15KT 24/15 A3029 RMK A01 T02400154  RH  059%=      5-min Rain = 0
KAM2 141546Z 07015KT 24/15 A3029 RMK A01 T02410151  RH  057%=      5-min Rain = 0
KAM2 141547Z 06014KT 24/15 A3029 RMK A01 T02400146  RH  056%=      5-min Rain = 0
KAM2 141548Z 05014KT 24/15 A3029 RMK A01 T02380145  RH  056%=      5-min Rain = 0
KAM2 141549Z 05015KT 24/14 A3029 RMK A01 T02380143  RH  055%=      5-min Rain = 0
KAM2 141550Z 04012KT 24/14 A303 RMK A01 T02370143  RH  055%=      5-min Rain = 0
KAM2 141551Z 04012G18KT 24/14 A303 RMK A01 T02370144  RH  056%=      5-min Rain = 0
KAM2 141552Z 05013KT 24/14 A303 RMK A01 T02390144  RH  055%=      5-min Rain = 0
KAM2 141553Z 06018KT 24/14 A303 RMK A01 T02400144  RH  055%=      5-min Rain = 0
KAM2 141554Z 05013KT 24/14 A3029 RMK A01 T02400143  RH  055%=      5-min Rain = 0
KAM2 141555Z 05015KT 24/14 A3029 RMK A01 T02390144  RH  055%=      5-min Rain = 0
KAM2 141556Z 06017KT 24/14 A3029 RMK A01 T02360143  RH  056%=      5-min Rain = 0
KAM2 141557Z 06015KT 24/15 A3029 RMK A01 T02360147  RH  057%=      5-min Rain = 0
KAM2 141558Z 05016KT 24/15 A3029 RMK A01 T02350145  RH  057%=      5-min Rain = 0
KAM2 141559Z 06018KT 23/14 A3029 RMK A01 T02330144  RH  057%=      5-min Rain = 0
KAM2 141600Z 06014KT 23/14 A3029 RMK A01 T02320142  RH  057%=      5-min Rain = 0
KAM2 141601Z 06009KT 23/15 A3029 RMK A01 T02320146  RH  058%=      5-min Rain = 0
KAM2 141602Z 06009KT 24/15 A3028 RMK A01 T02360149  RH  058%=      5-min Rain = 0
KAM2 141603Z 06010KT 24/15 A3028 RMK A01 T02400151  RH  057%=      5-min Rain = 0
KAM2 141604Z 06015KT 24/15 A3029 RMK A01 T02430149  RH  056%=      5-min Rain = 0
KAM2 141605Z 06017KT 24/15 A3029 RMK A01 T02420145  RH  055%=      5-min Rain = 0
KAM2 141606Z 06016KT 24/15 A3029 RMK A01 T02420148  RH  056%=      5-min Rain = 0
KAM2 141607Z 06016KT 24/15 A3028 RMK A01 T02420146  RH  055%=      5-min Rain = 0
KAM2 141608Z 06015KT 24/15 A3028 RMK A01 T02410148  RH  056%=      5-min Rain = 0
KAM2 141609Z 06012G17KT 24/15 A3028 RMK A01 T02400148  RH  056%=      5-min Rain = 0
KAM2 141610Z 04014KT 24/15 A3028 RMK A01 T02400149  RH  057%=      5-min Rain = 0
KAM2 141611Z 03015KT 24/15 A3029 RMK A01 T02390147  RH  056%=      5-min Rain = 0
KAM2 141612Z 04015KT 24/15 A3029 RMK A01 T02380147  RH  057%=      5-min Rain = 0
KAM2 141613Z 04014KT 24/15 A3029 RMK A01 T02380146  RH  056%=      5-min Rain = 0
KAM2 141614Z 03013KT 24/15 A3029 RMK A01 T02390150  RH  057%=      5-min Rain = 0
KAM2 141615Z 03016KT 24/15 A3029 RMK A01 T02410150  RH  057%=      5-min Rain = 0
KAM2 141616Z 03012KT 24/15 A3029 RMK A01 T02400151  RH  057%=      5-min Rain = 0
KAM2 141617Z 05009KT 24/15 A3028 RMK A01 T02390152  RH  058%=      5-min Rain = 0
KAM2 141618Z 05014KT 24/16 A3028 RMK A01 T02400155  RH  059%=      5-min Rain = 0
KAM2 141619Z 05013KT 24/15 A3028 RMK A01 T02410151  RH  057%=      5-min Rain = 0
KAM2 141620Z 05014KT 24/15 A3028 RMK A01 T02390151  RH  058%=      5-min Rain = 0
KAM2 141621Z 05014KT 24/15 A3028 RMK A01 T02380150  RH  058%=      5-min Rain = 0
KAM2 141622Z 05012KT 24/15 A3028 RMK A01 T02390151  RH  058%=      5-min Rain = 0
KAM2 141623Z 04011G16KT 24/15 A3028 RMK A01 T02400154  RH  059%=      5-min Rain = 0
KAM2 141624Z 03012KT 24/15 A3028 RMK A01 T02410150  RH  057%=      5-min Rain = 0
KAM2 141625Z 03013KT 24/15 A3027 RMK A01 T02410150  RH  057%=      5-min Rain = 0
KAM2 141626Z 03010KT 24/15 A3027 RMK A01 T02390151  RH  058%=      5-min Rain = 0
KAM2 141627Z 05013KT 24/15 A3027 RMK A01 T02410153  RH  058%=      5-min Rain = 0
KAM2 141628Z 05012KT 24/15 A3027 RMK A01 T02430152  RH  057%=      5-min Rain = 0
KAM2 141629Z 04010G15KT 24/15 A3027 RMK A01 T02440152  RH  057%=      5-min Rain = 0
KAM2 141630Z 02013KT 24/15 A3027 RMK A01 T02440153  RH  057%=      5-min Rain = 0
KAM2 141631Z 02013KT 25/15 A3027 RMK A01 T02450152  RH  056%=      5-min Rain = 0
KAM2 141632Z 03015G23KT 25/15 A3027 RMK A01 T02460150  RH  055%=      5-min Rain = 0
KAM2 141633Z 04013KT 25/15 A3028 RMK A01 T02470149  RH  054%=      5-min Rain = 0
KAM2 141634Z 03010KT 25/15 A3027 RMK A01 T02460151  RH  055%=      5-min Rain = 0
KAM2 141635Z 04010KT 25/15 A3027 RMK A01 T02470152  RH  055%=      5-min Rain = 0
KAM2 141636Z 05008KT 25/15 A3027 RMK A01 T02480154  RH  056%=      5-min Rain = 0
KAM2 141637Z 04013KT 25/15 A3027 RMK A01 T02510154  RH  055%=      5-min Rain = 0
KAM2 141638Z 04012KT 25/15 A3027 RMK A01 T02510153  RH  054%=      5-min Rain = 0
KAM2 141639Z 04011KT 25/15 A3027 RMK A01 T02490151  RH  054%=      5-min Rain = 0
KAM2 141640Z 03012KT 25/15 A3027 RMK A01 T02480150  RH  055%=      5-min Rain = 0
KAM2 141641Z 04011KT 25/15 A3027 RMK A01 T02460150  RH  055%=      5-min Rain = 0
KAM2 141642Z 02012KT 25/15 A3027 RMK A01 T02460150  RH  055%=      5-min Rain = 0
KAM2 141643Z 02009KT 25/15 A3027 RMK A01 T02470149  RH  054%=      5-min Rain = 0
KAM2 141644Z 02011KT 25/16 A3027 RMK A01 T02490156  RH  056%=      5-min Rain = 0
KAM2 141645Z 04011KT 25/15 A3028 RMK A01 T02510151  RH  054%=      5-min Rain = 0
KAM2 141646Z 02013KT 25/15 A3028 RMK A01 T02480151  RH  055%=      5-min Rain = 0
KAM2 141647Z 02010KT 25/15 A3028 RMK A01 T02490153  RH  055%=      5-min Rain = 0
KAM2 141648Z 02008KT 25/16 A3028 RMK A01 T02510156  RH  056%=      5-min Rain = 0
KAM2 141649Z 01011KT 25/15 A3028 RMK A01 T02520153  RH  054%=      5-min Rain = 0
KAM2 141650Z 01011KT 25/15 A3028 RMK A01 T02520150  RH  053%=      5-min Rain = 0
KAM2 141651Z 02011KT 25/15 A3028 RMK A01 T02510152  RH  054%=      5-min Rain = 0
KAM2 141652Z 03010KT 25/15 A3029 RMK A01 T02520149  RH  053%=      5-min Rain = 0
KAM2 141653Z 01008KT 25/15 A3029 RMK A01 T02510149  RH  053%=      5-min Rain = 0
KAM2 141654Z 01012KT 25/15 A3029 RMK A01 T02510149  RH  053%=      5-min Rain = 0
KAM2 141655Z 01010KT 25/15 A3029 RMK A01 T02540152  RH  053%=      5-min Rain = 0
KAM2 141656Z 00007KT 26/15 A3029 RMK A01 T02550151  RH  052%=      5-min Rain = 0
KAM2 141657Z 03009KT 26/15 A3029 RMK A01 T02580151  RH  052%=      5-min Rain = 0
KAM2 141658Z 01008KT 26/15 A3029 RMK A01 T02590154  RH  052%=      5-min Rain = 0
KAM2 141659Z 00008G14KT 26/16 A3029 RMK A01 T02610158  RH  053%=      5-min Rain = 0
KAM2 141700Z 36009KT 26/15 A3029 RMK A01 T02600154  RH  052%=      5-min Rain = 0
KAM2 141701Z 34007KT 26/16 A3029 RMK A01 T02560155  RH  054%=      5-min Rain = 0
KAM2 141702Z 34009KT 25/15 A3028 RMK A01 T02530153  RH  054%=      5-min Rain = 0
KAM2 141703Z 36008KT 25/15 A3028 RMK A01 T02470148  RH  054%=      5-min Rain = 0
KAM2 141704Z 36012KT 24/15 A3028 RMK A01 T02440150  RH  056%=      5-min Rain = 0
KAM2 141705Z 35009KT 24/15 A3028 RMK A01 T02440150  RH  056%=      5-min Rain = 0
KAM2 141706Z 34006KT 25/15 A3028 RMK A01 T02450153  RH  057%=      5-min Rain = 0
KAM2 141707Z 36010KT 25/15 A3028 RMK A01 T02490153  RH  055%=      5-min Rain = 0
KAM2 141708Z 35008KT 25/15 A3028 RMK A01 T02500154  RH  055%=      5-min Rain = 0
KAM2 141709Z 35009KT 25/15 A3028 RMK A01 T02520154  RH  054%=      5-min Rain = 0
KAM2 141710Z 35008KT 25/15 A3028 RMK A01 T02520152  RH  054%=      5-min Rain = 0
KAM2 141711Z 34008G13KT 25/16 A3028 RMK A01 T02540155  RH  054%=      5-min Rain = 0
KAM2 141712Z 33007KT 26/15 A3028 RMK A01 T02580153  RH  052%=      5-min Rain = 0
KAM2 141713Z 32005KT 26/15 A3027 RMK A01 T02560147  RH  051%=      5-min Rain = 0
KAM2 141714Z 33007KT 25/15 A3027 RMK A01 T02540153  RH  053%=      5-min Rain = 0
KAM2 141715Z 35009KT 26/15 A3027 RMK A01 T02550152  RH  053%=      5-min Rain = 0
KAM2 141716Z 34009KT 25/15 A3027 RMK A01 T02530149  RH  053%=      5-min Rain = 0
KAM2 141717Z 34007KT 25/15 A3027 RMK A01 T02510150  RH  054%=      5-min Rain = 0
KAM2 141718Z 34007KT 25/15 A3027 RMK A01 T02500151  RH  054%=      5-min Rain = 0
KAM2 141719Z 34009KT 25/15 A3027 RMK A01 T02510150  RH  053%=      5-min Rain = 0
KAM2 141720Z 34007KT 25/15 A3027 RMK A01 T02510152  RH  054%=      5-min Rain = 0
KAM2 141721Z 33006KT 25/15 A3027 RMK A01 T02510150  RH  053%=      5-min Rain = 0
KAM2 141722Z 31006KT 25/15 A3027 RMK A01 T02490146  RH  053%=      5-min Rain = 0
KAM2 141723Z 33005KT 25/15 A3026 RMK A01 T02480148  RH  054%=      5-min Rain = 0
KAM2 141724Z 00006KT 25/15 A3026 RMK A01 T02490151  RH  054%=      5-min Rain = 0
KAM2 141725Z 03005KT 25/15 A3026 RMK A01 T02520147  RH  052%=      5-min Rain = 0
KAM2 141726Z 05005KT 25/15 A3026 RMK A01 T02520148  RH  053%=      5-min Rain = 0
KAM2 141727Z 02003KT 25/15 A3026 RMK A01 T02520150  RH  053%=      5-min Rain = 0
KAM2 141728Z 03004KT 25/15 A3026 RMK A01 T02520148  RH  053%=      5-min Rain = 0
KAM2 141729Z 06003KT 25/15 A3025 RMK A01 T02500146  RH  052%=      5-min Rain = 0
KAM2 141730Z 08004KT 25/15 A3025 RMK A01 T02500149  RH  054%=      5-min Rain = 0
KAM2 141731Z 07002KT 25/15 A3025 RMK A01 T02490145  RH  052%=      5-min Rain = 0
KAM2 141732Z 13001KT 25/15 A3024 RMK A01 T02480145  RH  053%=      5-min Rain = 0
KAM2 141733Z 15001KT 25/15 A3024 RMK A01 T02480145  RH  053%=      5-min Rain = 0
KAM2 141734Z 13005KT 25/15 A3024 RMK A01 T02480146  RH  053%=      5-min Rain = 0
KAM2 141735Z 11006KT 25/15 A3023 RMK A01 T02490149  RH  054%=      5-min Rain = 0
KAM2 141736Z 12004KT 25/14 A3023 RMK A01 T02490143  RH  052%=      5-min Rain = 0
KAM2 141737Z 13003KT 25/14 A3023 RMK A01 T02470143  RH  052%=      5-min Rain = 0
KAM2 141738Z 14003KT 25/15 A3023 RMK A01 T02470147  RH  054%=      5-min Rain = 0
KAM2 141739Z 13005KT 25/15 A3023 RMK A01 T02490150  RH  054%=      5-min Rain = 0
KAM2 141740Z 13005KT 25/15 A3023 RMK A01 T02510148  RH  053%=      5-min Rain = 0
KAM2 141741Z 11005KT 25/15 A3023 RMK A01 T02530148  RH  052%=      5-min Rain = 0
KAM2 141742Z 15006KT 25/15 A3023 RMK A01 T02540149  RH  052%=      5-min Rain = 0
KAM2 141743Z 16007KT 25/15 A3023 RMK A01 T02540147  RH  052%=      5-min Rain = 0
KAM2 141744Z 15007KT 25/15 A3023 RMK A01 T02530146  RH  051%=      5-min Rain = 0
KAM2 141745Z 16008KT 25/15 A3023 RMK A01 T02530147  RH  052%=      5-min Rain = 0
KAM2 141746Z 16007KT 25/14 A3022 RMK A01 T02520144  RH  051%=      5-min Rain = 0
KAM2 141747Z 16006KT 25/15 A3022 RMK A01 T02510147  RH  052%=      5-min Rain = 0
KAM2 141748Z 18008KT 25/15 A3022 RMK A01 T02510148  RH  053%=      5-min Rain = 0
KAM2 141749Z 17009KT 25/15 A3021 RMK A01 T02510146  RH  052%=      5-min Rain = 0
KAM2 141750Z 17009KT 25/15 A3021 RMK A01 T02500147  RH  053%=      5-min Rain = 0
KAM2 141751Z 18010KT 25/15 A3021 RMK A01 T02490147  RH  053%=      5-min Rain = 0
KAM2 141752Z 18008KT 25/15 A3021 RMK A01 T02480149  RH  054%=      5-min Rain = 0
KAM2 141753Z 17008KT 25/15 A302 RMK A01 T02480150  RH  054%=      5-min Rain = 0
KAM2 141754Z 16009KT 25/15 A302 RMK A01 T02480151  RH  055%=      5-min Rain = 0
KAM2 141755Z 17012KT 25/15 A302 RMK A01 T02480149  RH  054%=      5-min Rain = 0
KAM2 141756Z 15010KT 25/15 A302 RMK A01 T02480150  RH  054%=      5-min Rain = 0
KAM2 141757Z 16009KT 25/15 A302 RMK A01 T02480149  RH  054%=      5-min Rain = 0
KAM2 141758Z 16008KT 25/15 A3019 RMK A01 T02480151  RH  055%=      5-min Rain = 0
KAM2 141759Z 16007KT 25/16 A3019 RMK A01 T02490155  RH  056%=      5-min Rain = 0
KAM2 141800Z 15009KT 25/15 A3019 RMK A01 T02500153  RH  055%=      5-min Rain = 0
KAM2 141801Z 16009KT 25/15 A3019 RMK A01 T02510151  RH  054%=      5-min Rain = 0
KAM2 141802Z 16006KT 25/15 A3019 RMK A01 T02500152  RH  054%=      5-min Rain = 0
KAM2 141803Z 17005KT 25/15 A302 RMK A01 T02500153  RH  055%=      5-min Rain = 0
KAM2 141804Z 17008KT 25/15 A302 RMK A01 T02500151  RH  054%=      5-min Rain = 0
KAM2 141805Z 18007KT 25/15 A302 RMK A01 T02500152  RH  054%=      5-min Rain = 0
KAM2 141806Z 19007KT 25/15 A302 RMK A01 T02500151  RH  054%=      5-min Rain = 0
KAM2 141807Z 19007KT 25/15 A302 RMK A01 T02500152  RH  054%=      5-min Rain = 0
KAM2 141808Z 19007KT 25/15 A302 RMK A01 T02500154  RH  055%=      5-min Rain = 0
KAM2 141809Z 18007KT 25/15 A302 RMK A01 T02510153  RH  054%=      5-min Rain = 0
KAM2 141810Z 19008KT 25/15 A302 RMK A01 T02520151  RH  054%=      5-min Rain = 0
KAM2 141811Z 16006KT 25/15 A302 RMK A01 T02530152  RH  054%=      5-min Rain = 0
KAM2 141812Z 17004KT 26/16 A302 RMK A01 T02550157  RH  054%=      5-min Rain = 0
KAM2 141813Z 17005KT 26/16 A302 RMK A01 T02590157  RH  053%=      5-min Rain = 0
KAM2 141814Z 16006KT 26/16 A302 RMK A01 T02610158  RH  053%=      5-min Rain = 0
KAM2 141815Z 14007KT 26/16 A302 RMK A01 T02630156  RH  052%=      5-min Rain = 0
KAM2 141816Z 14006KT 27/16 A3021 RMK A01 T02650156  RH  051%=      5-min Rain = 0
KAM2 141817Z 14005KT 27/15 A3021 RMK A01 T02650152  RH  050%=      5-min Rain = 0
KAM2 141818Z 16002KT 26/15 A3021 RMK A01 T02630150  RH  050%=      5-min Rain = 0
KAM2 141819Z 16003G8KT 26/16 A3021 RMK A01 T02640161  RH  053%=      5-min Rain = 0
KAM2 141820Z 13006KT 27/16 A3021 RMK A01 T02670156  RH  051%=      5-min Rain = 0
KAM2 141821Z 12004KT 27/15 A3021 RMK A01 T02690152  RH  049%=      5-min Rain = 0
KAM2 141822Z 09003KT 27/15 A3021 RMK A01 T02660153  RH  050%=      5-min Rain = 0
KAM2 141823Z 07003KT 27/15 A3021 RMK A01 T02650150  RH  049%=      5-min Rain = 0
KAM2 141824Z 04003KT 26/15 A3022 RMK A01 T02640150  RH  049%=      5-min Rain = 0
KAM2 141825Z 01003KT 26/15 A3022 RMK A01 T02640153  RH  051%=      5-min Rain = 0
KAM2 141826Z 02003KT 27/15 A3022 RMK A01 T02650150  RH  049%=      5-min Rain = 0
KAM2 141827Z 04003KT 26/15 A3023 RMK A01 T02640151  RH  050%=      5-min Rain = 0
KAM2 141828Z 02002KT 26/15 A3023 RMK A01 T02630150  RH  050%=      5-min Rain = 0
KAM2 141829Z 01002KT 26/15 A3023 RMK A01 T02640154  RH  051%=      5-min Rain = 0
KAM2 141830Z 06004KT 27/16 A3022 RMK A01 T02660158  RH  052%=      5-min Rain = 0
KAM2 141831Z 05003KT 27/15 A3022 RMK A01 T02680152  RH  049%=      5-min Rain = 0
KAM2 141832Z 05001KT 27/15 A3022 RMK A01 T02670153  RH  050%=      5-min Rain = 0
KAM2 141833Z 00002KT 27/16 A3022 RMK A01 T02670156  RH  051%=      5-min Rain = 0
KAM2 141834Z 01002KT 27/15 A3022 RMK A01 T02670152  RH  049%=      5-min Rain = 0
KAM2 141835Z 34002KT 27/16 A3022 RMK A01 T02660155  RH  050%=      5-min Rain = 0
KAM2 141836Z 32002KT 27/16 A3022 RMK A01 T02650155  RH  051%=      5-min Rain = 0
KAM2 141837Z 34001KT 27/16 A3022 RMK A01 T02650156  RH  051%=      5-min Rain = 0
KAM2 141838Z 00002KT 27/16 A3022 RMK A01 T02660156  RH  051%=      5-min Rain = 0
KAM2 141839Z 01002KT 27/16 A3022 RMK A01 T02660155  RH  051%=      5-min Rain = 0
KAM2 141840Z 30002KT 27/16 A3022 RMK A01 T02660155  RH  050%=      5-min Rain = 0
KAM2 141841Z 29003KT 27/15 A3022 RMK A01 T02660152  RH  050%=      5-min Rain = 0
KAM2 141842Z 29002KT 26/15 A3022 RMK A01 T02640151  RH  050%=      5-min Rain = 0
KAM2 141843Z 28001KT 26/15 A3022 RMK A01 T02620148  RH  050%=      5-min Rain = 0
KAM2 141844Z 29001KT 26/15 A3022 RMK A01 T02610149  RH  050%=      5-min Rain = 0
KAM2 141845Z 32001KT 26/15 A3022 RMK A01 T02600151  RH  051%=      5-min Rain = 0
KAM2 141846Z 32002KT 26/15 A3021 RMK A01 T02600153  RH  051%=      5-min Rain = 0
KAM2 141847Z 33002KT 26/15 A3021 RMK A01 T02610153  RH  051%=      5-min Rain = 0
KAM2 141848Z 01003KT 26/15 A3021 RMK A01 T02610154  RH  052%=      5-min Rain = 0
KAM2 141849Z 01002KT 26/15 A3021 RMK A01 T02620150  RH  050%=      5-min Rain = 0
KAM2 141850Z 03002KT 26/16 A3021 RMK A01 T02610155  RH  052%=      5-min Rain = 0
KAM2 141851Z 05003KT 26/15 A3021 RMK A01 T02620154  RH  051%=      5-min Rain = 0
KAM2 141852Z 04001KT 26/15 A3021 RMK A01 T02630153  RH  051%=      5-min Rain = 0
KAM2 141853Z 02001KT 26/15 A3021 RMK A01 T02630149  RH  050%=      5-min Rain = 0
KAM2 141854Z 02003KT 26/15 A3021 RMK A01 T02620153  RH  051%=      5-min Rain = 0
KAM2 141855Z 05004KT 26/15 A3021 RMK A01 T02630154  RH  051%=      5-min Rain = 0
KAM2 141856Z 03003KT 26/16 A3021 RMK A01 T02640158  RH  052%=      5-min Rain = 0
KAM2 141857Z 01003KT 27/15 A3021 RMK A01 T02670152  RH  049%=      5-min Rain = 0
KAM2 141858Z 02001KT 27/15 A3021 RMK A01 T02670152  RH  049%=      5-min Rain = 0
KAM2 141859Z 35003KT 27/16 A3021 RMK A01 T02670155  RH  050%=      5-min Rain = 0
KAM2 141900Z 01002KT 27/15 A3021 RMK A01 T02680153  RH  049%=      5-min Rain = 0
KAM2 141901Z 33002KT 27/15 A3021 RMK A01 T02680154  RH  050%=      5-min Rain = 0
KAM2 141902Z 33004KT 27/16 A302 RMK A01 T02690155  RH  050%=      5-min Rain = 0
KAM2 141903Z 01004KT 27/16 A302 RMK A01 T02700155  RH  049%=      5-min Rain = 0
KAM2 141904Z 04005KT 27/15 A302 RMK A01 T02700154  RH  049%=      5-min Rain = 0
KAM2 141905Z 04005KT 27/15 A302 RMK A01 T02700152  RH  049%=      5-min Rain = 0
KAM2 141906Z 05004KT 27/16 A302 RMK A01 T02680155  RH  050%=      5-min Rain = 0
KAM2 141907Z 10004KT 27/16 A302 RMK A01 T02710161  RH  051%=      5-min Rain = 0
KAM2 141908Z 14003KT 28/16 A302 RMK A01 T02760158  RH  049%=      5-min Rain = 0
KAM2 141909Z 14004KT 28/15 A302 RMK A01 T02770153  RH  047%=      5-min Rain = 0
KAM2 141910Z 13002KT 28/15 A302 RMK A01 T02760151  RH  046%=      5-min Rain = 0
KAM2 141911Z 10006KT 28/16 A302 RMK A01 T02750155  RH  048%=      5-min Rain = 0
KAM2 141912Z 09006KT 28/15 A302 RMK A01 T02760153  RH  047%=      5-min Rain = 0
KAM2 141913Z 10005KT 28/15 A302 RMK A01 T02770152  RH  046%=      5-min Rain = 0
KAM2 141914Z 11004KT 28/15 A302 RMK A01 T02770152  RH  046%=      5-min Rain = 0
KAM2 141915Z 11004KT 28/15 A302 RMK A01 T02760151  RH  046%=      5-min Rain = 0
KAM2 141916Z 12005KT 28/16 A302 RMK A01 T02760155  RH  047%=      5-min Rain = 0
KAM2 141917Z 12005KT 28/15 A302 RMK A01 T02790152  RH  046%=      5-min Rain = 0
KAM2 141918Z 14003KT 28/15 A302 RMK A01 T02800148  RH  045%=      5-min Rain = 0
KAM2 141919Z 16003KT 28/15 A302 RMK A01 T02780147  RH  045%=      5-min Rain = 0
KAM2 141920Z 16003KT 28/15 A302 RMK A01 T02780151  RH  046%=      5-min Rain = 0
KAM2 141921Z 13003KT 28/16 A302 RMK A01 T02790157  RH  047%=      5-min Rain = 0
KAM2 141922Z 10005KT 28/15 A302 RMK A01 T02810154  RH  046%=      5-min Rain = 0
KAM2 141923Z 09004KT 28/15 A302 RMK A01 T02810151  RH  045%=      5-min Rain = 0
KAM2 141924Z 09003KT 28/15 A302 RMK A01 T02800152  RH  046%=      5-min Rain = 0
KAM2 141925Z 09003KT 28/15 A302 RMK A01 T02790152  RH  046%=      5-min Rain = 0
KAM2 141926Z 10001KT 28/15 A302 RMK A01 T02780154  RH  047%=      5-min Rain = 0
KAM2 141927Z 00000KT 28/15 A302 RMK A01 T02780146  RH  044%=      5-min Rain = 0
KAM2 141928Z 00000KT 28/15 A302 RMK A01 T02780149  RH  045%=      5-min Rain = 0
KAM2 141929Z 18002KT 28/15 A302 RMK A01 T02790148  RH  045%=      5-min Rain = 0
KAM2 141930Z 18003KT 28/15 A302 RMK A01 T02790146  RH  044%=      5-min Rain = 0
KAM2 141931Z 18002KT 28/15 A302 RMK A01 T02780145  RH  044%=      5-min Rain = 0
KAM2 141932Z 17001KT 28/15 A302 RMK A01 T02760147  RH  045%=      5-min Rain = 0
KAM2 141933Z 17002KT 28/15 A302 RMK A01 T02770151  RH  046%=      5-min Rain = 0
KAM2 141934Z 17001KT 28/15 A302 RMK A01 T02780147  RH  045%=      5-min Rain = 0
KAM2 141935Z 23003KT 28/15 A302 RMK A01 T02780148  RH  045%=      5-min Rain = 0
KAM2 141936Z 26002KT 28/14 A302 RMK A01 T02780144  RH  044%=      5-min Rain = 0
KAM2 141937Z 29001KT 28/15 A302 RMK A01 T02770146  RH  045%=      5-min Rain = 0
KAM2 141938Z 34001KT 28/14 A3019 RMK A01 T02760142  RH  044%=      5-min Rain = 0
KAM2 141939Z 33003KT 28/15 A3019 RMK A01 T02750146  RH  045%=      5-min Rain = 0
KAM2 141940Z 01001KT 28/14 A3019 RMK A01 T02760143  RH  044%=      5-min Rain = 0
KAM2 141941Z 09002KT 28/15 A3019 RMK A01 T02760147  RH  045%=      5-min Rain = 0
KAM2 141942Z 14003KT 28/15 A3019 RMK A01 T02780148  RH  045%=      5-min Rain = 0
KAM2 141943Z 09003KT 28/16 A3019 RMK A01 T02820157  RH  047%=      5-min Rain = 0
KAM2 141944Z 03003KT 29/16 A3019 RMK A01 T02860155  RH  045%=      5-min Rain = 0
KAM2 141945Z 04003KT 29/16 A3019 RMK A01 T02870157  RH  045%=      5-min Rain = 0
KAM2 141946Z 03004KT 29/15 A3019 RMK A01 T02880153  RH  044%=      5-min Rain = 0
KAM2 141947Z 05003KT 29/15 A3019 RMK A01 T02860154  RH  045%=      5-min Rain = 0
KAM2 141948Z 00003KT 29/15 A3019 RMK A01 T02850151  RH  044%=      5-min Rain = 0
KAM2 141949Z 34001KT 28/15 A3019 RMK A01 T02840150  RH  044%=      5-min Rain = 0
KAM2 141950Z 34001KT 28/15 A3019 RMK A01 T02840153  RH  045%=      5-min Rain = 0
KAM2 141951Z 00002KT 29/16 A3019 RMK A01 T02850155  RH  045%=      5-min Rain = 0
KAM2 141952Z 35001KT 29/15 A3019 RMK A01 T02860150  RH  044%=      5-min Rain = 0
KAM2 141953Z 07001KT 29/15 A3019 RMK A01 T02850154  RH  045%=      5-min Rain = 0
KAM2 141954Z 04001KT 29/16 A3019 RMK A01 T02860157  RH  045%=      5-min Rain = 0
KAM2 141955Z 10002KT 29/15 A3019 RMK A01 T02880150  RH  043%=      5-min Rain = 0
KAM2 141956Z 11004KT 29/15 A3019 RMK A01 T02890154  RH  044%=      5-min Rain = 0
KAM2 141957Z 10003KT 29/15 A3019 RMK A01 T02890149  RH  042%=      5-min Rain = 0
KAM2 141958Z 10003KT 29/15 A3019 RMK A01 T02880150  RH  043%=      5-min Rain = 0
KAM2 141959Z 09005KT 29/16 A3019 RMK A01 T02870157  RH  045%=      5-min Rain = 0
KAM2 142000Z 09005KT 29/15 A3019 RMK A01 T02900154  RH  044%=      5-min Rain = 0
KAM2 142001Z 10003KT 29/15 A3018 RMK A01 T02910152  RH  043%=      5-min Rain = 0
KAM2 142002Z 11001KT 29/15 A3018 RMK A01 T02900151  RH  043%=      5-min Rain = 0
KAM2 142003Z 11005KT 29/15 A3018 RMK A01 T02900154  RH  044%=      5-min Rain = 0
KAM2 142004Z 09004KT 29/15 A3018 RMK A01 T02900151  RH  043%=      5-min Rain = 0
KAM2 142005Z 10004KT 29/16 A3018 RMK A01 T02890155  RH  044%=      5-min Rain = 0
KAM2 142006Z 10004KT 29/16 A3018 RMK A01 T02900155  RH  044%=      5-min Rain = 0
KAM2 142007Z 10004KT 29/15 A3018 RMK A01 T02910152  RH  043%=      5-min Rain = 0
KAM2 142008Z 10003KT 29/15 A3018 RMK A01 T02900151  RH  043%=      5-min Rain = 0
KAM2 142009Z 11003KT 29/15 A3018 RMK A01 T02880148  RH  042%=      5-min Rain = 0
KAM2 142010Z 13000KT 29/15 A3018 RMK A01 T02860146  RH  042%=      5-min Rain = 0
KAM2 142011Z 28000KT 28/15 A3018 RMK A01 T02840149  RH  044%=      5-min Rain = 0
KAM2 142012Z 08003KT 29/15 A3018 RMK A01 T02850153  RH  045%=      5-min Rain = 0
KAM2 142013Z 10003KT 29/15 A3018 RMK A01 T02880153  RH  044%=      5-min Rain = 0
KAM2 142014Z 09002KT 29/15 A3018 RMK A01 T02890148  RH  042%=      5-min Rain = 0
KAM2 142015Z 07002KT 29/15 A3018 RMK A01 T02880148  RH  043%=      5-min Rain = 0
KAM2 142016Z 07004KT 29/15 A3018 RMK A01 T02870152  RH  044%=      5-min Rain = 0
KAM2 142017Z 06003KT 29/15 A3018 RMK A01 T02880148  RH  042%=      5-min Rain = 0
KAM2 142018Z 07002KT 29/15 A3018 RMK A01 T02870148  RH  042%=      5-min Rain = 0
KAM2 142019Z 02001KT 29/15 A3017 RMK A01 T02870146  RH  042%=      5-min Rain = 0
KAM2 142020Z 00003KT 29/15 A3017 RMK A01 T02850147  RH  043%=      5-min Rain = 0
KAM2 142021Z 02003KT 29/15 A3017 RMK A01 T02850149  RH  044%=      5-min Rain = 0
KAM2 142022Z 13003KT 29/16 A3017 RMK A01 T02870155  RH  045%=      5-min Rain = 0
KAM2 142023Z 14004KT 29/15 A3017 RMK A01 T02900151  RH  043%=      5-min Rain = 0
KAM2 142024Z 11004KT 29/15 A3017 RMK A01 T02920152  RH  043%=      5-min Rain = 0
KAM2 142025Z 11004KT 29/15 A3017 RMK A01 T02930149  RH  042%=      5-min Rain = 0
KAM2 142026Z 13003KT 29/15 A3017 RMK A01 T02910148  RH  042%=      5-min Rain = 0
KAM2 142027Z 16002KT 29/15 A3017 RMK A01 T02910149  RH  042%=      5-min Rain = 0
KAM2 142028Z 12001KT 29/15 A3017 RMK A01 T02910147  RH  041%=      5-min Rain = 0
KAM2 142029Z 12004KT 29/15 A3017 RMK A01 T02920154  RH  043%=      5-min Rain = 0
KAM2 142030Z 14002KT 29/15 A3017 RMK A01 T02930150  RH  042%=      5-min Rain = 0
KAM2 142031Z 18002KT 29/15 A3017 RMK A01 T02930150  RH  042%=      5-min Rain = 0
KAM2 142032Z 20002KT 29/15 A3017 RMK A01 T02940151  RH  042%=      5-min Rain = 0
KAM2 142033Z 20003KT 30/16 A3017 RMK A01 T02950157  RH  043%=      5-min Rain = 0
KAM2 142034Z 19004KT 30/15 A3017 RMK A01 T02970148  RH  040%=      5-min Rain = 0
KAM2 142035Z 18003KT 30/15 A3017 RMK A01 T02960148  RH  041%=      5-min Rain = 0
KAM2 142036Z 18003KT 30/15 A3017 RMK A01 T02950149  RH  041%=      5-min Rain = 0
KAM2 142037Z 15004KT 29/15 A3017 RMK A01 T02930152  RH  042%=      5-min Rain = 0
KAM2 142038Z 19005KT 30/16 A3017 RMK A01 T02960155  RH  042%=      5-min Rain = 0
KAM2 142039Z 18003KT 30/15 A3017 RMK A01 T02970152  RH  041%=      5-min Rain = 0
KAM2 142040Z 18002KT 30/15 A3017 RMK A01 T02960148  RH  040%=      5-min Rain = 0
KAM2 142041Z 15005KT 30/15 A3016 RMK A01 T02950151  RH  041%=      5-min Rain = 0
KAM2 142042Z 14006KT 30/15 A3016 RMK A01 T02950154  RH  042%=      5-min Rain = 0
KAM2 142043Z 15004KT 30/15 A3016 RMK A01 T02980151  RH  041%=      5-min Rain = 0
KAM2 142044Z 13001KT 30/15 A3016 RMK A01 T02970154  RH  042%=      5-min Rain = 0
KAM2 142045Z 14002KT 30/15 A3016 RMK A01 T02970147  RH  040%=      5-min Rain = 0
KAM2 142046Z 16003KT 30/15 A3016 RMK A01 T02970150  RH  041%=      5-min Rain = 0
KAM2 142047Z 17001KT 30/15 A3016 RMK A01 T02970149  RH  041%=      5-min Rain = 0
KAM2 142048Z 12000KT 30/15 A3016 RMK A01 T02960150  RH  041%=      5-min Rain = 0
KAM2 142049Z 13000KT 30/15 A3016 RMK A01 T02970151  RH  041%=      5-min Rain = 0
KAM2 142050Z 09001KT 30/16 A3016 RMK A01 T02990155  RH  042%=      5-min Rain = 0
KAM2 142051Z 32002KT 30/16 A3016 RMK A01 T03010155  RH  041%=      5-min Rain = 0
KAM2 142052Z 33001KT 30/15 A3016 RMK A01 T03030154  RH  041%=      5-min Rain = 0
KAM2 142053Z 02001KT 30/15 A3016 RMK A01 T03020152  RH  040%=      5-min Rain = 0
KAM2 142054Z 09002KT 30/15 A3016 RMK A01 T03020152  RH  040%=      5-min Rain = 0
KAM2 142055Z 09003KT 30/15 A3016 RMK A01 T03000151  RH  040%=      5-min Rain = 0
KAM2 142056Z 13002KT 30/16 A3016 RMK A01 T02990156  RH  042%=      5-min Rain = 0
KAM2 142057Z 15003KT 30/16 A3016 RMK A01 T03010155  RH  041%=      5-min Rain = 0
KAM2 142058Z 20004KT 30/16 A3016 RMK A01 T03030157  RH  041%=      5-min Rain = 0
KAM2 142059Z 21004KT 30/15 A3016 RMK A01 T03040151  RH  039%=      5-min Rain = 0
KAM2 142100Z 22002KT 30/15 A3016 RMK A01 T03040153  RH  040%=      5-min Rain = 0
KAM2 142101Z 21004KT 30/15 A3016 RMK A01 T03040150  RH  039%=      5-min Rain = 0
KAM2 142102Z 22005KT 30/15 A3015 RMK A01 T03020150  RH  040%=      5-min Rain = 0
KAM2 142103Z 22004KT 30/15 A3015 RMK A01 T03010152  RH  040%=      5-min Rain = 0
KAM2 142104Z 19003KT 30/15 A3015 RMK A01 T03010152  RH  040%=      5-min Rain = 0
KAM2 142105Z 23001KT 30/15 A3015 RMK A01 T03030152  RH  040%=      5-min Rain = 0
KAM2 142106Z 30001KT 30/16 A3015 RMK A01 T03040155  RH  040%=      5-min Rain = 0
KAM2 142107Z 12001KT 31/15 A3015 RMK A01 T03060154  RH  040%=      5-min Rain = 0
KAM2 142108Z 13002KT 31/15 A3015 RMK A01 T03070149  RH  038%=      5-min Rain = 0
KAM2 142109Z 11001KT 31/15 A3015 RMK A01 T03070150  RH  039%=      5-min Rain = 0
KAM2 142110Z 36000KT 31/15 A3015 RMK A01 T03070151  RH  039%=      5-min Rain = 0
KAM2 142111Z 34001KT 31/15 A3015 RMK A01 T03070150  RH  039%=      5-min Rain = 0
KAM2 142112Z 35001KT 31/15 A3015 RMK A01 T03070147  RH  038%=      5-min Rain = 0
KAM2 142113Z 01002KT 31/15 A3015 RMK A01 T03050149  RH  039%=      5-min Rain = 0
KAM2 142114Z 02002KT 31/15 A3015 RMK A01 T03050151  RH  039%=      5-min Rain = 0
KAM2 142115Z 35002KT 31/16 A3015 RMK A01 T03050159  RH  041%=      5-min Rain = 0
KAM2 142116Z 00004KT 31/16 A3015 RMK A01 T03080159  RH  041%=      5-min Rain = 0
KAM2 142117Z 00003KT 31/15 A3015 RMK A01 T03090149  RH  038%=      5-min Rain = 0
KAM2 142118Z 36002KT 31/15 A3015 RMK A01 T03060152  RH  039%=      5-min Rain = 0
KAM2 142119Z 35003KT 31/15 A3015 RMK A01 T03050153  RH  040%=      5-min Rain = 0
KAM2 142120Z 34004KT 31/15 A3015 RMK A01 T03050152  RH  039%=      5-min Rain = 0
KAM2 142121Z 31003KT 30/15 A3015 RMK A01 T03030148  RH  039%=      5-min Rain = 0
KAM2 142122Z 32003KT 30/15 A3015 RMK A01 T03020148  RH  039%=      5-min Rain = 0
KAM2 142123Z 31002KT 30/15 A3015 RMK A01 T03000149  RH  040%=      5-min Rain = 0
KAM2 142124Z 35003KT 30/15 A3015 RMK A01 T03010153  RH  041%=      5-min Rain = 0
KAM2 142125Z 01003KT 30/15 A3015 RMK A01 T03020150  RH  040%=      5-min Rain = 0
KAM2 142126Z 02002KT 30/15 A3015 RMK A01 T03020150  RH  040%=      5-min Rain = 0
KAM2 142127Z 08001KT 30/15 A3015 RMK A01 T03020150  RH  040%=      5-min Rain = 0
KAM2 142128Z 19001KT 30/15 A3015 RMK A01 T03030154  RH  041%=      5-min Rain = 0
KAM2 142129Z 12003KT 31/16 A3015 RMK A01 T03050155  RH  040%=      5-min Rain = 0
KAM2 142130Z 13005KT 31/16 A3015 RMK A01 T03060157  RH  041%=      5-min Rain = 0
KAM2 142131Z 12005KT 31/16 A3015 RMK A01 T03090159  RH  040%=      5-min Rain = 0
KAM2 142132Z 13006KT 31/16 A3015 RMK A01 T03110156  RH  039%=      5-min Rain = 0
KAM2 142133Z 11005KT 31/15 A3015 RMK A01 T03110154  RH  039%=      5-min Rain = 0
KAM2 142134Z 11003KT 31/15 A3015 RMK A01 T03090153  RH  039%=      5-min Rain = 0
KAM2 142135Z 12006KT 31/15 A3014 RMK A01 T03070153  RH  039%=      5-min Rain = 0
KAM2 142136Z 12006KT 31/15 A3014 RMK A01 T03060153  RH  039%=      5-min Rain = 0
KAM2 142137Z 12004KT 31/15 A3014 RMK A01 T03050151  RH  039%=      5-min Rain = 0
KAM2 142138Z 13006KT 30/15 A3014 RMK A01 T03040152  RH  040%=      5-min Rain = 0
KAM2 142139Z 13003KT 30/15 A3014 RMK A01 T03040149  RH  039%=      5-min Rain = 0
KAM2 142140Z 14003KT 30/15 A3014 RMK A01 T03040150  RH  039%=      5-min Rain = 0
KAM2 142141Z 17004KT 30/15 A3014 RMK A01 T03040151  RH  039%=      5-min Rain = 0
KAM2 142142Z 20003KT 31/15 A3014 RMK A01 T03050148  RH  039%=      5-min Rain = 0
KAM2 142143Z 21002KT 31/15 A3014 RMK A01 T03050149  RH  039%=      5-min Rain = 0
KAM2 142144Z 23002KT 31/15 A3014 RMK A01 T03050153  RH  040%=      5-min Rain = 0
KAM2 142145Z 22003KT 31/15 A3014 RMK A01 T03080153  RH  039%=      5-min Rain = 0
KAM2 142146Z 29001KT 31/15 A3014 RMK A01 T03090151  RH  038%=      5-min Rain = 0
KAM2 142147Z 26001KT 31/15 A3014 RMK A01 T03100145  RH  037%=      5-min Rain = 0
KAM2 142148Z 09002KT 31/15 A3014 RMK A01 T03070149  RH  038%=      5-min Rain = 0
KAM2 142149Z 10005KT 31/15 A3014 RMK A01 T03070149  RH  038%=      5-min Rain = 0
KAM2 142150Z 14004KT 31/15 A3014 RMK A01 T03080152  RH  039%=      5-min Rain = 0
KAM2 142151Z 17003KT 31/15 A3014 RMK A01 T03080150  RH  038%=      5-min Rain = 0
KAM2 142152Z 10002KT 31/15 A3014 RMK A01 T03090151  RH  038%=      5-min Rain = 0
KAM2 142153Z 12006KT 31/15 A3014 RMK A01 T03100152  RH  038%=      5-min Rain = 0
KAM2 142154Z 12005KT 31/15 A3013 RMK A01 T03100153  RH  038%=      5-min Rain = 0
KAM2 142155Z 12004KT 31/15 A3013 RMK A01 T03110151  RH  038%=      5-min Rain = 0
KAM2 142156Z 14005KT 31/15 A3013 RMK A01 T03110153  RH  038%=      5-min Rain = 0
KAM2 142157Z 13004KT 31/15 A3013 RMK A01 T03120149  RH  037%=      5-min Rain = 0
KAM2 142158Z 12005KT 31/15 A3013 RMK A01 T03110154  RH  039%=      5-min Rain = 0
KAM2 142159Z 11006KT 31/15 A3013 RMK A01 T03110154  RH  039%=      5-min Rain = 0
KAM2 142200Z 12005KT 31/15 A3013 RMK A01 T03110147  RH  037%=      5-min Rain = 0
KAM2 142201Z 12005KT 31/15 A3013 RMK A01 T03100148  RH  037%=      5-min Rain = 0
KAM2 142202Z 12005KT 31/15 A3013 RMK A01 T03090145  RH  037%=      5-min Rain = 0
KAM2 142203Z 13004KT 31/15 A3013 RMK A01 T03090147  RH  037%=      5-min Rain = 0
KAM2 142204Z 14003KT 31/15 A3013 RMK A01 T03080147  RH  038%=      5-min Rain = 0
KAM2 142205Z 09003KT 31/15 A3013 RMK A01 T03090148  RH  038%=      5-min Rain = 0
KAM2 142206Z 08004KT 31/15 A3013 RMK A01 T03100146  RH  037%=      5-min Rain = 0
KAM2 142207Z 07001KT 31/14 A3013 RMK A01 T03100143  RH  036%=      5-min Rain = 0
KAM2 142208Z 11001KT 31/14 A3013 RMK A01 T03100144  RH  037%=      5-min Rain = 0
KAM2 142209Z 09006KT 31/15 A3013 RMK A01 T03100152  RH  038%=      5-min Rain = 0
KAM2 142210Z 09005KT 31/15 A3013 RMK A01 T03110150  RH  038%=      5-min Rain = 0
KAM2 142211Z 06005KT 31/15 A3013 RMK A01 T03120147  RH  037%=      5-min Rain = 0
KAM2 142212Z 06005KT 31/15 A3013 RMK A01 T03110149  RH  037%=      5-min Rain = 0
KAM2 142213Z 06003KT 31/15 A3013 RMK A01 T03110147  RH  037%=      5-min Rain = 0
KAM2 142214Z 07005KT 31/15 A3013 RMK A01 T03110148  RH  037%=      5-min Rain = 0
KAM2 142215Z 05006KT 31/15 A3013 RMK A01 T03110150  RH  038%=      5-min Rain = 0
KAM2 142216Z 06005KT 31/15 A3013 RMK A01 T03120150  RH  037%=      5-min Rain = 0
KAM2 142217Z 06004KT 31/15 A3012 RMK A01 T03130147  RH  037%=      5-min Rain = 0
KAM2 142218Z 05003KT 31/15 A3012 RMK A01 T03130146  RH  036%=      5-min Rain = 0
KAM2 142219Z 06006KT 31/15 A3012 RMK A01 T03120148  RH  037%=      5-min Rain = 0
KAM2 142220Z 06006KT 31/15 A3012 RMK A01 T03120154  RH  038%=      5-min Rain = 0
KAM2 142221Z 06004KT 31/15 A3012 RMK A01 T03140149  RH  037%=      5-min Rain = 0
KAM2 142222Z 06004KT 31/15 A3012 RMK A01 T03130147  RH  037%=      5-min Rain = 0
KAM2 142223Z 10004KT 31/15 A3012 RMK A01 T03120146  RH  037%=      5-min Rain = 0
KAM2 142224Z 12006KT 31/15 A3012 RMK A01 T03110148  RH  037%=      5-min Rain = 0
KAM2 142225Z 12005KT 31/15 A3012 RMK A01 T03110147  RH  037%=      5-min Rain = 0
KAM2 142226Z 11004KT 31/15 A3012 RMK A01 T03110146  RH  037%=      5-min Rain = 0
KAM2 142227Z 10005KT 31/15 A3012 RMK A01 T03110147  RH  037%=      5-min Rain = 0
KAM2 142228Z 11004KT 31/15 A3012 RMK A01 T03100148  RH  037%=      5-min Rain = 0
KAM2 142229Z 11003KT 31/15 A3012 RMK A01 T03100148  RH  037%=      5-min Rain = 0
KAM2 142230Z 10001KT 31/14 A3012 RMK A01 T03100143  RH  036%=      5-min Rain = 0
KAM2 142231Z 11002KT 31/15 A3012 RMK A01 T03090150  RH  038%=      5-min Rain = 0
KAM2 142232Z 09003KT 31/15 A3012 RMK A01 T03100147  RH  037%=      5-min Rain = 0
KAM2 142233Z 08003KT 31/15 A3012 RMK A01 T03110145  RH  036%=      5-min Rain = 0
KAM2 142234Z 09003KT 31/15 A3012 RMK A01 T03100145  RH  037%=      5-min Rain = 0
KAM2 142235Z 07005KT 31/16 A3012 RMK A01 T03100155  RH  039%=      5-min Rain = 0
KAM2 142236Z 07005KT 31/15 A3012 RMK A01 T03110151  RH  038%=      5-min Rain = 0
KAM2 142237Z 08006KT 31/15 A3012 RMK A01 T03120153  RH  038%=      5-min Rain = 0
KAM2 142238Z 09005KT 31/15 A3012 RMK A01 T03110149  RH  037%=      5-min Rain = 0
KAM2 142239Z 08005KT 31/15 A3012 RMK A01 T03100152  RH  038%=      5-min Rain = 0
KAM2 142240Z 07003KT 31/15 A3012 RMK A01 T03100153  RH  039%=      5-min Rain = 0
KAM2 142241Z 08005KT 31/15 A3012 RMK A01 T03110152  RH  038%=      5-min Rain = 0
KAM2 142242Z 08005KT 31/15 A3012 RMK A01 T03120148  RH  037%=      5-min Rain = 0
KAM2 142243Z 09003KT 31/15 A3012 RMK A01 T03110147  RH  037%=      5-min Rain = 0
KAM2 142244Z 05003KT 31/15 A3012 RMK A01 T03100148  RH  037%=      5-min Rain = 0
KAM2 142245Z 03003KT 31/15 A3012 RMK A01 T03100146  RH  037%=      5-min Rain = 0
KAM2 142246Z 06003KT 31/14 A3012 RMK A01 T03090144  RH  037%=      5-min Rain = 0
KAM2 142247Z 07004KT 31/15 A3012 RMK A01 T03080153  RH  039%=      5-min Rain = 0
KAM2 142248Z 05004KT 31/15 A3012 RMK A01 T03100151  RH  038%=      5-min Rain = 0
KAM2 142249Z 05005KT 31/15 A3012 RMK A01 T03110149  RH  038%=      5-min Rain = 0
KAM2 142250Z 07003KT 31/15 A3012 RMK A01 T03120147  RH  037%=      5-min Rain = 0
KAM2 142251Z 07004KT 31/15 A3012 RMK A01 T03110152  RH  038%=      5-min Rain = 0
KAM2 142252Z 08003KT 31/15 A3012 RMK A01 T03120151  RH  038%=      5-min Rain = 0
KAM2 142253Z 11003KT 31/16 A3012 RMK A01 T03120155  RH  039%=      5-min Rain = 0
KAM2 142254Z 06003KT 31/15 A3012 RMK A01 T03130154  RH  038%=      5-min Rain = 0
KAM2 142255Z 08005KT 31/15 A3011 RMK A01 T03140149  RH  037%=      5-min Rain = 0
KAM2 142256Z 04006KT 31/15 A3011 RMK A01 T03130154  RH  038%=      5-min Rain = 0
KAM2 142257Z 06004KT 31/15 A3011 RMK A01 T03130154  RH  038%=      5-min Rain = 0
KAM2 142258Z 10005KT 31/15 A3011 RMK A01 T03130152  RH  038%=      5-min Rain = 0
KAM2 142259Z 11004KT 31/15 A3011 RMK A01 T03130149  RH  037%=      5-min Rain = 0
KAM2 142300Z 07004KT 31/15 A3011 RMK A01 T03120152  RH  038%=      5-min Rain = 0
KAM2 142301Z 09006KT 31/15 A3011 RMK A01 T03120154  RH  038%=      5-min Rain = 0
KAM2 142302Z 09005KT 31/15 A3011 RMK A01 T03130151  RH  038%=      5-min Rain = 0
KAM2 142303Z 09005KT 31/15 A3011 RMK A01 T03130147  RH  037%=      5-min Rain = 0
KAM2 142304Z 08003KT 31/15 A3011 RMK A01 T03120148  RH  037%=      5-min Rain = 0
KAM2 142305Z 09003KT 31/15 A3011 RMK A01 T03120146  RH  037%=      5-min Rain = 0
KAM2 142306Z 07002KT 31/14 A3011 RMK A01 T03120144  RH  036%=      5-min Rain = 0
KAM2 142307Z 11002KT 31/15 A3012 RMK A01 T03120149  RH  037%=      5-min Rain = 0
KAM2 142308Z 09003KT 31/15 A3012 RMK A01 T03130149  RH  037%=      5-min Rain = 0
KAM2 142309Z 10005KT 31/15 A3012 RMK A01 T03130151  RH  038%=      5-min Rain = 0
KAM2 142310Z 11005KT 31/15 A3012 RMK A01 T03130149  RH  037%=      5-min Rain = 0
KAM2 142311Z 11005KT 31/15 A3012 RMK A01 T03120150  RH  038%=      5-min Rain = 0
KAM2 142312Z 12004KT 31/15 A3012 RMK A01 T03120148  RH  037%=      5-min Rain = 0
KAM2 142313Z 12003KT 31/15 A3012 RMK A01 T03120149  RH  037%=      5-min Rain = 0
KAM2 142314Z 12004KT 31/15 A3012 RMK A01 T03130151  RH  037%=      5-min Rain = 0
KAM2 142315Z 08004KT 31/15 A3012 RMK A01 T03130151  RH  037%=      5-min Rain = 0
KAM2 142316Z 08005KT 31/15 A3012 RMK A01 T03130150  RH  037%=      5-min Rain = 0
KAM2 142317Z 08006KT 31/15 A3012 RMK A01 T03130153  RH  038%=      5-min Rain = 0
KAM2 142318Z 10007KT 31/15 A3012 RMK A01 T03140152  RH  038%=      5-min Rain = 0
KAM2 142319Z 10007KT 31/15 A3012 RMK A01 T03140152  RH  038%=      5-min Rain = 0
KAM2 142320Z 12007KT 31/15 A3012 RMK A01 T03140153  RH  038%=      5-min Rain = 0
KAM2 142321Z 12007KT 31/15 A3012 RMK A01 T03130146  RH  036%=      5-min Rain = 0
KAM2 142322Z 11005KT 31/15 A3012 RMK A01 T03120148  RH  037%=      5-min Rain = 0
KAM2 142323Z 09005KT 31/15 A3011 RMK A01 T03110150  RH  038%=      5-min Rain = 0
KAM2 142324Z 09006KT 31/15 A3011 RMK A01 T03120148  RH  037%=      5-min Rain = 0
KAM2 142325Z 10005KT 31/15 A3011 RMK A01 T03110151  RH  038%=      5-min Rain = 0
KAM2 142326Z 10004KT 31/15 A3011 RMK A01 T03110150  RH  038%=      5-min Rain = 0
KAM2 142327Z 08005KT 31/15 A3011 RMK A01 T03110150  RH  038%=      5-min Rain = 0
KAM2 142328Z 08006KT 31/15 A3011 RMK A01 T03120147  RH  037%=      5-min Rain = 0
KAM2 142329Z 10005KT 31/14 A3011 RMK A01 T03110144  RH  036%=      5-min Rain = 0
KAM2 142330Z 11005KT 31/15 A3011 RMK A01 T03110145  RH  037%=      5-min Rain = 0
KAM2 142331Z 12004KT 31/15 A3011 RMK A01 T03110146  RH  037%=      5-min Rain = 0
KAM2 142332Z 12004KT 31/15 A3011 RMK A01 T03110149  RH  037%=      5-min Rain = 0
KAM2 142333Z 10005KT 31/15 A3011 RMK A01 T03120149  RH  037%=      5-min Rain = 0
KAM2 142334Z 07006KT 31/15 A3011 RMK A01 T03120148  RH  037%=      5-min Rain = 0
KAM2 142335Z 08006KT 31/15 A3011 RMK A01 T03120147  RH  037%=      5-min Rain = 0
KAM2 142336Z 09005KT 31/14 A3011 RMK A01 T03120144  RH  036%=      5-min Rain = 0
KAM2 142337Z 11006KT 31/14 A3011 RMK A01 T03110144  RH  036%=      5-min Rain = 0
KAM2 142338Z 12003KT 31/14 A3011 RMK A01 T03110143  RH  036%=      5-min Rain = 0
KAM2 142339Z 11006KT 31/15 A3011 RMK A01 T03110149  RH  037%=      5-min Rain = 0
KAM2 142340Z 12006KT 31/15 A3011 RMK A01 T03110145  RH  036%=      5-min Rain = 0
KAM2 142341Z 10005KT 31/15 A301 RMK A01 T03110148  RH  037%=      5-min Rain = 0
KAM2 142342Z 10006KT 31/15 A301 RMK A01 T03110150  RH  038%=      5-min Rain = 0
KAM2 142343Z 09006KT 31/15 A301 RMK A01 T03110145  RH  036%=      5-min Rain = 0
KAM2 142344Z 09005KT 31/15 A301 RMK A01 T03100146  RH  037%=      5-min Rain = 0
KAM2 142345Z 10006KT 31/14 A301 RMK A01 T03100144  RH  036%=      5-min Rain = 0
KAM2 142346Z 10005KT 31/14 A301 RMK A01 T03100141  RH  036%=      5-min Rain = 0
KAM2 142347Z 11005KT 31/14 A301 RMK A01 T03090144  RH  036%=      5-min Rain = 0
KAM2 142348Z 10004KT 31/15 A301 RMK A01 T03090145  RH  037%=      5-min Rain = 0
KAM2 142349Z 09004KT 31/14 A301 RMK A01 T03100142  RH  036%=      5-min Rain = 0
KAM2 142350Z 10007KT 31/15 A301 RMK A01 T03100145  RH  037%=      5-min Rain = 0
KAM2 142351Z 10008KT 31/14 A301 RMK A01 T03100140  RH  036%=      5-min Rain = 0
KAM2 142352Z 12005KT 31/14 A301 RMK A01 T03100142  RH  036%=      5-min Rain = 0
KAM2 142353Z 12008KT 31/14 A301 RMK A01 T03100142  RH  036%=      5-min Rain = 0
KAM2 142354Z 12008KT 31/14 A301 RMK A01 T03100140  RH  036%=      5-min Rain = 0
KAM2 142355Z 12007KT 31/14 A301 RMK A01 T03100141  RH  036%=      5-min Rain = 0
KAM2 142356Z 12007KT 31/14 A301 RMK A01 T03090139  RH  035%=      5-min Rain = 0
KAM2 142357Z 13005KT 31/14 A301 RMK A01 T03090140  RH  036%=      5-min Rain = 0
KAM2 142358Z 13004KT 31/14 A301 RMK A01 T03090142  RH  036%=      5-min Rain = 0
KAM2 142359Z 09004KT 31/14 A301 RMK A01 T03100144  RH  036%=      5-min Rain = 0
KAM2 150000Z 09005KT 31/14 A301 RMK A01 T03100143  RH  036%=      5-min Rain = 0
KAM2 150001Z 08005KT 31/14 A301 RMK A01 T03100139  RH  035%=      5-min Rain = 0
KAM2 150002Z 07005KT 31/14 A301 RMK A01 T03100144  RH  037%=      5-min Rain = 0
KAM2 150003Z 09005KT 31/15 A301 RMK A01 T03100145  RH  037%=      5-min Rain = 0
KAM2 150004Z 11006KT 31/15 A301 RMK A01 T03100152  RH  038%=      5-min Rain = 0
KAM2 150005Z 12006KT 31/14 A301 RMK A01 T03100144  RH  037%=      5-min Rain = 0
KAM2 150006Z 11007KT 31/14 A301 RMK A01 T03100143  RH  036%=      5-min Rain = 0
KAM2 150007Z 11006KT 31/14 A301 RMK A01 T03090144  RH  037%=      5-min Rain = 0
KAM2 150008Z 10006KT 31/14 A301 RMK A01 T03080143  RH  037%=      5-min Rain = 0
KAM2 150009Z 10006KT 31/14 A301 RMK A01 T03070141  RH  036%=      5-min Rain = 0
KAM2 150010Z 11006KT 31/14 A301 RMK A01 T03070140  RH  036%=      5-min Rain = 0
KAM2 150011Z 11005KT 31/14 A301 RMK A01 T03060141  RH  037%=      5-min Rain = 0
KAM2 150012Z 11006KT 31/14 A301 RMK A01 T03060141  RH  037%=      5-min Rain = 0
KAM2 150013Z 11005KT 31/14 A301 RMK A01 T03060142  RH  037%=      5-min Rain = 0
KAM2 150014Z 10006KT 31/14 A301 RMK A01 T03050144  RH  037%=      5-min Rain = 0
KAM2 150015Z 10006KT 30/14 A301 RMK A01 T03040143  RH  037%=      5-min Rain = 0
KAM2 150016Z 10006KT 31/15 A301 RMK A01 T03050146  RH  038%=      5-min Rain = 0
KAM2 150017Z 09006KT 30/15 A301 RMK A01 T03040146  RH  038%=      5-min Rain = 0
KAM2 150018Z 09006KT 30/15 A301 RMK A01 T03040149  RH  039%=      5-min Rain = 0
KAM2 150019Z 09007KT 30/15 A301 RMK A01 T03040151  RH  039%=      5-min Rain = 0
KAM2 150020Z 10009KT 30/15 A301 RMK A01 T03040148  RH  039%=      5-min Rain = 0
KAM2 150021Z 10007KT 30/15 A301 RMK A01 T03040147  RH  038%=      5-min Rain = 0
KAM2 150022Z 10008KT 30/15 A301 RMK A01 T03040149  RH  039%=      5-min Rain = 0
KAM2 150023Z 10007KT 30/15 A301 RMK A01 T03030146  RH  038%=      5-min Rain = 0
KAM2 150024Z 10006KT 30/15 A301 RMK A01 T03030145  RH  038%=      5-min Rain = 0
KAM2 150025Z 10007KT 30/15 A301 RMK A01 T03020148  RH  039%=      5-min Rain = 0
KAM2 150026Z 10007KT 30/15 A301 RMK A01 T03020150  RH  040%=      5-min Rain = 0
KAM2 150027Z 09008KT 30/15 A301 RMK A01 T03010148  RH  039%=      5-min Rain = 0
KAM2 150028Z 10006KT 30/15 A301 RMK A01 T03010147  RH  039%=      5-min Rain = 0
KAM2 150029Z 10006KT 30/15 A301 RMK A01 T03010149  RH  040%=      5-min Rain = 0
KAM2 150030Z 09005KT 30/15 A301 RMK A01 T03010151  RH  040%=      5-min Rain = 0
KAM2 150031Z 08004KT 30/16 A301 RMK A01 T03010156  RH  041%=      5-min Rain = 0
KAM2 150032Z 10004KT 30/16 A301 RMK A01 T03010157  RH  042%=      5-min Rain = 0
KAM2 150033Z 10006KT 30/16 A301 RMK A01 T03000158  RH  042%=      5-min Rain = 0
KAM2 150034Z 10006KT 30/16 A301 RMK A01 T02990156  RH  042%=      5-min Rain = 0
KAM2 150035Z 10007KT 30/16 A301 RMK A01 T02980155  RH  042%=      5-min Rain = 0
KAM2 150036Z 10007KT 30/15 A3011 RMK A01 T02970154  RH  042%=      5-min Rain = 0
KAM2 150037Z 10006KT 30/15 A3011 RMK A01 T02970154  RH  042%=      5-min Rain = 0
KAM2 150038Z 10006KT 30/16 A3011 RMK A01 T02970155  RH  042%=      5-min Rain = 0
KAM2 150039Z 11005KT 30/16 A3011 RMK A01 T02960156  RH  043%=      5-min Rain = 0
KAM2 150040Z 10005KT 30/16 A3011 RMK A01 T02950160  RH  044%=      5-min Rain = 0
KAM2 150041Z 10005KT 30/16 A3011 RMK A01 T02950156  RH  043%=      5-min Rain = 0
KAM2 150042Z 11006KT 30/16 A3011 RMK A01 T02950156  RH  043%=      5-min Rain = 0
KAM2 150043Z 11006KT 29/16 A3011 RMK A01 T02940156  RH  043%=      5-min Rain = 0
KAM2 150044Z 11006KT 29/16 A3011 RMK A01 T02930156  RH  043%=      5-min Rain = 0
KAM2 150045Z 11006KT 29/16 A3011 RMK A01 T02920156  RH  044%=      5-min Rain = 0
KAM2 150046Z 11005KT 29/16 A3011 RMK A01 T02920157  RH  044%=      5-min Rain = 0
KAM2 150047Z 10006KT 29/16 A3011 RMK A01 T02900155  RH  044%=      5-min Rain = 0
KAM2 150048Z 11006KT 29/15 A3011 RMK A01 T02890154  RH  044%=      5-min Rain = 0
KAM2 150049Z 10007KT 29/15 A3011 RMK A01 T02890152  RH  043%=      5-min Rain = 0
KAM2 150050Z 11006KT 29/15 A3011 RMK A01 T02880153  RH  044%=      5-min Rain = 0
KAM2 150051Z 11007KT 29/15 A3011 RMK A01 T02880153  RH  044%=      5-min Rain = 0
KAM2 150052Z 10006KT 29/15 A3011 RMK A01 T02870151  RH  044%=      5-min Rain = 0
KAM2 150053Z 10006KT 29/15 A3011 RMK A01 T02870153  RH  044%=      5-min Rain = 0
KAM2 150054Z 11006KT 29/15 A3011 RMK A01 T02860154  RH  045%=      5-min Rain = 0
KAM2 150055Z 10006KT 28/15 A3011 RMK A01 T02840154  RH  045%=      5-min Rain = 0
KAM2 150056Z 11006KT 28/15 A3011 RMK A01 T02830153  RH  045%=      5-min Rain = 0
KAM2 150057Z 11006KT 28/15 A3011 RMK A01 T02830152  RH  045%=      5-min Rain = 0
KAM2 150058Z 11007KT 28/15 A3011 RMK A01 T02830153  RH  045%=      5-min Rain = 0
KAM2 150059Z 10007KT 28/15 A3011 RMK A01 T02820153  RH  045%=      5-min Rain = 0
KAM2 150100Z 11007KT 28/15 A3011 RMK A01 T02810153  RH  046%=      5-min Rain = 0
KAM2 150101Z 11007KT 28/15 A3011 RMK A01 T02800152  RH  046%=      5-min Rain = 0
KAM2 150102Z 11007KT 28/15 A3011 RMK A01 T02800151  RH  046%=      5-min Rain = 0
KAM2 150103Z 11006KT 28/15 A3011 RMK A01 T02800152  RH  046%=      5-min Rain = 0
KAM2 150104Z 11007KT 28/15 A3011 RMK A01 T02790152  RH  046%=      5-min Rain = 0
KAM2 150105Z 11007KT 28/15 A3011 RMK A01 T02790152  RH  046%=      5-min Rain = 0
KAM2 150106Z 11006KT 28/15 A3011 RMK A01 T02790153  RH  046%=      5-min Rain = 0
KAM2 150107Z 11007KT 28/15 A3011 RMK A01 T02770154  RH  047%=      5-min Rain = 0
KAM2 150108Z 11007KT 28/15 A3011 RMK A01 T02770154  RH  047%=      5-min Rain = 0
KAM2 150109Z 11006KT 28/15 A3011 RMK A01 T02760154  RH  047%=      5-min Rain = 0
KAM2 150110Z 11006KT 28/16 A3011 RMK A01 T02750155  RH  048%=      5-min Rain = 0
KAM2 150111Z 12007KT 27/15 A3011 RMK A01 T02740154  RH  048%=      5-min Rain = 0
KAM2 150112Z 11007KT 27/15 A3011 RMK A01 T02740153  RH  048%=      5-min Rain = 0
KAM2 150113Z 11007KT 27/15 A3011 RMK A01 T02740153  RH  048%=      5-min Rain = 0
KAM2 150114Z 11007KT 27/15 A3011 RMK A01 T02730153  RH  048%=      5-min Rain = 0
KAM2 150115Z 12007KT 27/15 A3011 RMK A01 T02730152  RH  048%=      5-min Rain = 0
KAM2 150116Z 11007KT 27/15 A3011 RMK A01 T02730152  RH  048%=      5-min Rain = 0
KAM2 150117Z 11006KT 27/15 A3011 RMK A01 T02730152  RH  048%=      5-min Rain = 0
KAM2 150118Z 12007KT 27/15 A3011 RMK A01 T02720153  RH  048%=      5-min Rain = 0
KAM2 150119Z 12007KT 27/15 A3011 RMK A01 T02720153  RH  048%=      5-min Rain = 0
KAM2 150120Z 12007KT 27/15 A3011 RMK A01 T02710153  RH  048%=      5-min Rain = 0
KAM2 150121Z 12006KT 27/15 A3011 RMK A01 T02710154  RH  049%=      5-min Rain = 0
KAM2 150122Z 12005KT 27/15 A3012 RMK A01 T02700153  RH  049%=      5-min Rain = 0
KAM2 150123Z 12006KT 27/15 A3012 RMK A01 T02690154  RH  049%=      5-min Rain = 0
KAM2 150124Z 12006KT 27/15 A3012 RMK A01 T02680154  RH  050%=      5-min Rain = 0
KAM2 150125Z 12006KT 27/15 A3012 RMK A01 T02670153  RH  050%=      5-min Rain = 0
KAM2 150126Z 12006KT 27/15 A3012 RMK A01 T02670154  RH  050%=      5-min Rain = 0
KAM2 150127Z 14004KT 27/16 A3012 RMK A01 T02660155  RH  050%=      5-min Rain = 0
KAM2 150128Z 15004KT 27/16 A3012 RMK A01 T02650162  RH  053%=      5-min Rain = 0
KAM2 150129Z 15004KT 26/16 A3012 RMK A01 T02630162  RH  054%=      5-min Rain = 0
KAM2 150130Z 14005KT 26/16 A3012 RMK A01 T02610163  RH  055%=      5-min Rain = 0
KAM2 150131Z 14005KT 26/16 A3012 RMK A01 T02590161  RH  055%=      5-min Rain = 0
KAM2 150132Z 14005KT 26/16 A3012 RMK A01 T02580159  RH  055%=      5-min Rain = 0
KAM2 150133Z 14005KT 26/16 A3012 RMK A01 T02570159  RH  055%=      5-min Rain = 0
KAM2 150134Z 14004KT 26/16 A3012 RMK A01 T02570159  RH  055%=      5-min Rain = 0
KAM2 150135Z 13005KT 26/16 A3012 RMK A01 T02560159  RH  055%=      5-min Rain = 0
KAM2 150136Z 14006KT 26/16 A3012 RMK A01 T02560159  RH  055%=      5-min Rain = 0
KAM2 150137Z 13005KT 26/16 A3012 RMK A01 T02560158  RH  055%=      5-min Rain = 0
KAM2 150138Z 13006KT 26/16 A3012 RMK A01 T02560158  RH  055%=      5-min Rain = 0
KAM2 150139Z 12007KT 26/16 A3012 RMK A01 T02560156  RH  054%=      5-min Rain = 0
KAM2 150140Z 12008KT 26/16 A3012 RMK A01 T02560155  RH  053%=      5-min Rain = 0
KAM2 150141Z 12009KT 26/15 A3012 RMK A01 T02570153  RH  053%=      5-min Rain = 0
KAM2 150142Z 12008KT 26/15 A3012 RMK A01 T02580151  RH  052%=      5-min Rain = 0
KAM2 150143Z 12008KT 26/15 A3012 RMK A01 T02600151  RH  051%=      5-min Rain = 0
KAM2 150144Z 12009KT 26/15 A3012 RMK A01 T02600152  RH  051%=      5-min Rain = 0
KAM2 150145Z 12009KT 26/15 A3012 RMK A01 T02600152  RH  051%=      5-min Rain = 0
KAM2 150146Z 12008KT 26/15 A3012 RMK A01 T02610152  RH  051%=      5-min Rain = 0
KAM2 150147Z 12009KT 26/15 A3012 RMK A01 T02610152  RH  051%=      5-min Rain = 0
KAM2 150148Z 12008KT 26/15 A3012 RMK A01 T02620151  RH  050%=      5-min Rain = 0
KAM2 150149Z 13008KT 26/15 A3012 RMK A01 T02620151  RH  050%=      5-min Rain = 0
KAM2 150150Z 12008KT 26/15 A3012 RMK A01 T02620150  RH  050%=      5-min Rain = 0
KAM2 150151Z 12007KT 26/15 A3012 RMK A01 T02630150  RH  050%=      5-min Rain = 0
KAM2 150152Z 13007KT 26/15 A3012 RMK A01 T02630150  RH  050%=      5-min Rain = 0
KAM2 150153Z 13006KT 26/15 A3012 RMK A01 T02630150  RH  050%=      5-min Rain = 0
KAM2 150154Z 12007KT 26/15 A3012 RMK A01 T02630149  RH  050%=      5-min Rain = 0
KAM2 150155Z 12007KT 26/15 A3012 RMK A01 T02630148  RH  049%=      5-min Rain = 0
KAM2 150156Z 12006KT 26/15 A3012 RMK A01 T02630149  RH  049%=      5-min Rain = 0
KAM2 150157Z 12007KT 26/15 A3012 RMK A01 T02630149  RH  049%=      5-min Rain = 0
KAM2 150158Z 12008KT 26/15 A3012 RMK A01 T02640147  RH  049%=      5-min Rain = 0
KAM2 150159Z 12007KT 27/15 A3012 RMK A01 T02650146  RH  048%=      5-min Rain = 0
KAM2 150200Z 12007KT 27/15 A3012 RMK A01 T02650147  RH  048%=      5-min Rain = 0
KAM2 150201Z 12007KT 27/15 A3012 RMK A01 T02650146  RH  048%=      5-min Rain = 0
KAM2 150202Z 12008KT 27/15 A3012 RMK A01 T02650146  RH  048%=      5-min Rain = 0
KAM2 150203Z 12008KT 27/15 A3012 RMK A01 T02650145  RH  047%=      5-min Rain = 0
KAM2 150204Z 12009KT 27/14 A3013 RMK A01 T02660143  RH  047%=      5-min Rain = 0
KAM2 150205Z 12008KT 27/14 A3013 RMK A01 T02660142  RH  046%=      5-min Rain = 0
KAM2 150206Z 12009KT 27/14 A3013 RMK A01 T02670142  RH  046%=      5-min Rain = 0
KAM2 150207Z 12008KT 27/14 A3013 RMK A01 T02670142  RH  046%=      5-min Rain = 0
KAM2 150208Z 12008KT 27/14 A3013 RMK A01 T02670143  RH  046%=      5-min Rain = 0
KAM2 150209Z 12008KT 27/14 A3013 RMK A01 T02660142  RH  046%=      5-min Rain = 0
KAM2 150210Z 12009KT 27/14 A3013 RMK A01 T02660141  RH  046%=      5-min Rain = 0
KAM2 150211Z 12010KT 27/14 A3013 RMK A01 T02660140  RH  046%=      5-min Rain = 0
KAM2 150212Z 12010KT 27/14 A3013 RMK A01 T02660139  RH  046%=      5-min Rain = 0
KAM2 150213Z 12011KT 27/14 A3013 RMK A01 T02670139  RH  045%=      5-min Rain = 0
KAM2 150214Z 12011KT 27/14 A3013 RMK A01 T02680139  RH  045%=      5-min Rain = 0
KAM2 150215Z 12010KT 27/14 A3013 RMK A01 T02680139  RH  045%=      5-min Rain = 0
KAM2 150216Z 12010KT 27/14 A3013 RMK A01 T02680139  RH  045%=      5-min Rain = 0
KAM2 150217Z 12010KT 27/14 A3013 RMK A01 T02680138  RH  045%=      5-min Rain = 0
KAM2 150218Z 11009KT 27/14 A3013 RMK A01 T02690139  RH  045%=      5-min Rain = 0
KAM2 150219Z 12008KT 27/14 A3013 RMK A01 T02690140  RH  045%=      5-min Rain = 0
KAM2 150220Z 12009KT 27/14 A3013 RMK A01 T02680141  RH  046%=      5-min Rain = 0
KAM2 150221Z 12009KT 27/14 A3013 RMK A01 T02670141  RH  046%=      5-min Rain = 0
KAM2 150222Z 11008KT 27/14 A3013 RMK A01 T02670142  RH  046%=      5-min Rain = 0
KAM2 150223Z 11009KT 27/14 A3013 RMK A01 T02660142  RH  046%=      5-min Rain = 0
KAM2 150224Z 12009KT 27/14 A3013 RMK A01 T02660143  RH  047%=      5-min Rain = 0
KAM2 150225Z 12009KT 27/14 A3013 RMK A01 T02650144  RH  047%=      5-min Rain = 0
KAM2 150226Z 11009KT 27/15 A3013 RMK A01 T02650145  RH  048%=      5-min Rain = 0
KAM2 150227Z 12009KT 27/15 A3013 RMK A01 T02650146  RH  048%=      5-min Rain = 0
KAM2 150228Z 12009KT 26/15 A3013 RMK A01 T02640146  RH  048%=      5-min Rain = 0
KAM2 150229Z 12009KT 26/15 A3013 RMK A01 T02640146  RH  048%=      5-min Rain = 0
KAM2 150230Z 12009KT 26/15 A3013 RMK A01 T02640146  RH  048%=      5-min Rain = 0
KAM2 150231Z 12008KT 27/15 A3013 RMK A01 T02650147  RH  048%=      5-min Rain = 0
KAM2 150232Z 12008KT 27/15 A3013 RMK A01 T02650148  RH  048%=      5-min Rain = 0
KAM2 150233Z 12008KT 27/15 A3013 RMK A01 T02650149  RH  049%=      5-min Rain = 0
KAM2 150234Z 13009KT 27/15 A3013 RMK A01 T02650149  RH  049%=      5-min Rain = 0
KAM2 150235Z 13008KT 27/15 A3013 RMK A01 T02650149  RH  049%=      5-min Rain = 0
KAM2 150236Z 13008KT 27/15 A3013 RMK A01 T02660151  RH  049%=      5-min Rain = 0
KAM2 150237Z 13007KT 27/15 A3013 RMK A01 T02650151  RH  049%=      5-min Rain = 0
KAM2 150238Z 13006KT 27/15 A3013 RMK A01 T02650151  RH  050%=      5-min Rain = 0
KAM2 150239Z 13006KT 27/15 A3013 RMK A01 T02650153  RH  050%=      5-min Rain = 0
KAM2 150240Z 13007KT 26/15 A3013 RMK A01 T02640152  RH  050%=      5-min Rain = 0
KAM2 150241Z 14006KT 26/15 A3014 RMK A01 T02640150  RH  050%=      5-min Rain = 0
KAM2 150242Z 15006KT 26/15 A3014 RMK A01 T02640149  RH  049%=      5-min Rain = 0
KAM2 150243Z 15006KT 26/15 A3014 RMK A01 T02630148  RH  049%=      5-min Rain = 0
KAM2 150244Z 14007KT 26/15 A3014 RMK A01 T02620148  RH  049%=      5-min Rain = 0
KAM2 150245Z 15007KT 26/15 A3014 RMK A01 T02620147  RH  049%=      5-min Rain = 0
KAM2 150246Z 14006KT 26/15 A3014 RMK A01 T02620148  RH  050%=      5-min Rain = 0
KAM2 150247Z 14006KT 26/15 A3014 RMK A01 T02610148  RH  050%=      5-min Rain = 0
KAM2 150248Z 14006KT 26/15 A3014 RMK A01 T02600149  RH  050%=      5-min Rain = 0
KAM2 150249Z 14006KT 26/15 A3014 RMK A01 T02600149  RH  051%=      5-min Rain = 0
KAM2 150250Z 14008KT 26/15 A3014 RMK A01 T02590148  RH  050%=      5-min Rain = 0
KAM2 150251Z 13007KT 26/15 A3014 RMK A01 T02590147  RH  050%=      5-min Rain = 0
KAM2 150252Z 14008KT 26/15 A3014 RMK A01 T02600147  RH  050%=      5-min Rain = 0
KAM2 150253Z 14009KT 26/15 A3014 RMK A01 T02600146  RH  050%=      5-min Rain = 0
KAM2 150254Z 14008KT 26/15 A3014 RMK A01 T02610146  RH  049%=      5-min Rain = 0
KAM2 150255Z 14008KT 26/15 A3014 RMK A01 T02600147  RH  050%=      5-min Rain = 0
KAM2 150256Z 14008KT 26/15 A3014 RMK A01 T02600147  RH  050%=      5-min Rain = 0
KAM2 150257Z 14007KT 26/15 A3014 RMK A01 T02600148  RH  050%=      5-min Rain = 0
KAM2 150258Z 14008KT 26/15 A3014 RMK A01 T02590148  RH  050%=      5-min Rain = 0
KAM2 150259Z 14008KT 26/15 A3014 RMK A01 T02580148  RH  050%=      5-min Rain = 0
KAM2 150300Z 13008KT 26/15 A3014 RMK A01 T02580147  RH  050%=      5-min Rain = 0
KAM2 150301Z 13007KT 26/15 A3014 RMK A01 T02580147  RH  050%=      5-min Rain = 0
KAM2 150302Z 13008KT 26/15 A3014 RMK A01 T02580147  RH  050%=      5-min Rain = 0
KAM2 150303Z 13008KT 26/15 A3014 RMK A01 T02580146  RH  050%=      5-min Rain = 0
KAM2 150304Z 13007KT 26/15 A3014 RMK A01 T02580146  RH  050%=      5-min Rain = 0
KAM2 150305Z 13007KT 26/15 A3015 RMK A01 T02590146  RH  050%=      5-min Rain = 0
KAM2 150306Z 13007KT 26/15 A3015 RMK A01 T02590146  RH  050%=      5-min Rain = 0
KAM2 150307Z 13006KT 26/15 A3015 RMK A01 T02590146  RH  050%=      5-min Rain = 0
KAM2 150308Z 13006KT 26/15 A3015 RMK A01 T02590146  RH  050%=      5-min Rain = 0
KAM2 150309Z 14007KT 26/15 A3015 RMK A01 T02590147  RH  050%=      5-min Rain = 0
KAM2 150310Z 14008KT 26/15 A3015 RMK A01 T02580146  RH  050%=      5-min Rain = 0
KAM2 150311Z 14009KT 26/15 A3015 RMK A01 T02580145  RH  050%=      5-min Rain = 0
KAM2 150312Z 14009KT 26/15 A3015 RMK A01 T02590145  RH  050%=      5-min Rain = 0
KAM2 150313Z 14009KT 26/15 A3015 RMK A01 T02590146  RH  050%=      5-min Rain = 0
KAM2 150314Z 14009KT 26/15 A3015 RMK A01 T02590146  RH  050%=      5-min Rain = 0
KAM2 150315Z 14011KT 26/15 A3015 RMK A01 T02590145  RH  049%=      5-min Rain = 0
KAM2 150316Z 13012KT 26/14 A3015 RMK A01 T02600144  RH  049%=      5-min Rain = 0
KAM2 150317Z 14012KT 26/14 A3015 RMK A01 T02610143  RH  048%=      5-min Rain = 0
KAM2 150318Z 13010KT 26/14 A3015 RMK A01 T02620144  RH  048%=      5-min Rain = 0
KAM2 150319Z 14011KT 26/14 A3015 RMK A01 T02630144  RH  048%=      5-min Rain = 0
KAM2 150320Z 13012KT 26/14 A3015 RMK A01 T02630144  RH  048%=      5-min Rain = 0
KAM2 150321Z 14010KT 26/14 A3015 RMK A01 T02620144  RH  048%=      5-min Rain = 0
KAM2 150322Z 14013KT 26/15 A3015 RMK A01 T02630145  RH  048%=      5-min Rain = 0
KAM2 150323Z 14011G16KT 26/15 A3015 RMK A01 T02630145  RH  048%=      5-min Rain = 0
KAM2 150324Z 14011KT 26/15 A3015 RMK A01 T02630145  RH  048%=      5-min Rain = 0
KAM2 150325Z 14012KT 26/15 A3015 RMK A01 T02620145  RH  049%=      5-min Rain = 0
KAM2 150326Z 13012KT 26/15 A3015 RMK A01 T02620145  RH  049%=      5-min Rain = 0
KAM2 150327Z 14010KT 26/15 A3016 RMK A01 T02620146  RH  049%=      5-min Rain = 0
KAM2 150328Z 14010KT 26/15 A3016 RMK A01 T02620146  RH  049%=      5-min Rain = 0
KAM2 150329Z 14009KT 26/15 A3016 RMK A01 T02610147  RH  049%=      5-min Rain = 0
KAM2 150330Z 14009KT 26/15 A3016 RMK A01 T02600147  RH  050%=      5-min Rain = 0
KAM2 150331Z 14007KT 26/15 A3016 RMK A01 T02590148  RH  050%=      5-min Rain = 0
KAM2 150332Z 14007KT 26/15 A3016 RMK A01 T02580148  RH  051%=      5-min Rain = 0
KAM2 150333Z 14008KT 26/15 A3016 RMK A01 T02570148  RH  051%=      5-min Rain = 0
KAM2 150334Z 14009KT 26/15 A3016 RMK A01 T02570149  RH  051%=      5-min Rain = 0
KAM2 150335Z 14008KT 26/15 A3016 RMK A01 T02570149  RH  051%=      5-min Rain = 0
KAM2 150336Z 14008KT 26/15 A3016 RMK A01 T02570149  RH  051%=      5-min Rain = 0
KAM2 150337Z 15009KT 26/15 A3016 RMK A01 T02570149  RH  051%=      5-min Rain = 0
KAM2 150338Z 15009KT 26/15 A3016 RMK A01 T02580149  RH  051%=      5-min Rain = 0
KAM2 150339Z 15009KT 26/15 A3017 RMK A01 T02580149  RH  051%=      5-min Rain = 0
KAM2 150340Z 15011KT 26/15 A3017 RMK A01 T02590148  RH  050%=      5-min Rain = 0
KAM2 150341Z 15009KT 26/15 A3017 RMK A01 T02580148  RH  050%=      5-min Rain = 0
KAM2 150342Z 15009KT 26/15 A3017 RMK A01 T02580148  RH  051%=      5-min Rain = 0
KAM2 150343Z 15010KT 26/15 A3017 RMK A01 T02580149  RH  051%=      5-min Rain = 0
KAM2 150344Z 15009KT 26/15 A3017 RMK A01 T02580148  RH  051%=      5-min Rain = 0
KAM2 150345Z 15009KT 26/15 A3017 RMK A01 T02580149  RH  051%=      5-min Rain = 0
KAM2 150346Z 15009KT 26/15 A3017 RMK A01 T02570148  RH  051%=      5-min Rain = 0
KAM2 150347Z 15009KT 26/15 A3017 RMK A01 T02570149  RH  051%=      5-min Rain = 0
KAM2 150348Z 15010KT 26/15 A3017 RMK A01 T02560149  RH  052%=      5-min Rain = 0
KAM2 150349Z 14010KT 26/15 A3017 RMK A01 T02560148  RH  051%=      5-min Rain = 0
KAM2 150350Z 14010KT 26/15 A3017 RMK A01 T02560148  RH  051%=      5-min Rain = 0
KAM2 150351Z 15008KT 26/15 A3017 RMK A01 T02560149  RH  052%=      5-min Rain = 0
KAM2 150352Z 15010KT 26/15 A3017 RMK A01 T02560149  RH  052%=      5-min Rain = 0
KAM2 150353Z 15011KT 26/15 A3017 RMK A01 T02550149  RH  052%=      5-min Rain = 0
KAM2 150354Z 15010KT 26/15 A3017 RMK A01 T02550148  RH  052%=      5-min Rain = 0
KAM2 150355Z 15009KT 26/15 A3017 RMK A01 T02550149  RH  052%=      5-min Rain = 0
KAM2 150356Z 15009KT 26/15 A3017 RMK A01 T02550149  RH  052%=      5-min Rain = 0
KAM2 150357Z 15009KT 26/15 A3017 RMK A01 T02550149  RH  052%=      5-min Rain = 0
KAM2 150358Z 15010KT 25/15 A3017 RMK A01 T02540149  RH  052%=      5-min Rain = 0
KAM2 150359Z 15009KT 25/15 A3017 RMK A01 T02540149  RH  052%=      5-min Rain = 0
KAM2 150400Z 15010KT 25/15 A3017 RMK A01 T02540149  RH  052%=      5-min Rain = 0
KAM2 150401Z 15010KT 25/15 A3017 RMK A01 T02540149  RH  052%=      5-min Rain = 0
KAM2 150402Z 15009KT 25/15 A3017 RMK A01 T02540150  RH  052%=      5-min Rain = 0
KAM2 150403Z 15009KT 25/15 A3017 RMK A01 T02530150  RH  053%=      5-min Rain = 0
KAM2 150404Z 15010KT 25/15 A3017 RMK A01 T02530150  RH  053%=      5-min Rain = 0
KAM2 150405Z 15009KT 25/15 A3017 RMK A01 T02520149  RH  053%=      5-min Rain = 0
KAM2 150406Z 15010KT 25/15 A3017 RMK A01 T02520150  RH  053%=      5-min Rain = 0
KAM2 150407Z 15010KT 25/15 A3017 RMK A01 T02520150  RH  053%=      5-min Rain = 0
KAM2 150408Z 15010KT 25/15 A3017 RMK A01 T02520150  RH  053%=      5-min Rain = 0
KAM2 150409Z 14009KT 25/15 A3017 RMK A01 T02520150  RH  053%=      5-min Rain = 0
KAM2 150410Z 15008KT 25/15 A3017 RMK A01 T02520151  RH  053%=      5-min Rain = 0
KAM2 150411Z 14009KT 25/15 A3017 RMK A01 T02510151  RH  054%=      5-min Rain = 0
KAM2 150412Z 14009KT 25/15 A3017 RMK A01 T02510151  RH  054%=      5-min Rain = 0
KAM2 150413Z 14008KT 25/15 A3017 RMK A01 T02500151  RH  054%=      5-min Rain = 0
KAM2 150414Z 14009KT 25/15 A3017 RMK A01 T02500152  RH  054%=      5-min Rain = 0
KAM2 150415Z 14009KT 25/15 A3017 RMK A01 T02500151  RH  054%=      5-min Rain = 0
KAM2 150416Z 14009KT 25/15 A3017 RMK A01 T02500152  RH  054%=      5-min Rain = 0
KAM2 150417Z 14009KT 25/15 A3017 RMK A01 T02500151  RH  054%=      5-min Rain = 0
KAM2 150418Z 14009KT 25/15 A3017 RMK A01 T02500152  RH  055%=      5-min Rain = 0
KAM2 150419Z 14009KT 25/15 A3017 RMK A01 T02500152  RH  055%=      5-min Rain = 0
KAM2 150420Z 14008KT 25/15 A3017 RMK A01 T02500152  RH  055%=      5-min Rain = 0
KAM2 150421Z 14009KT 25/15 A3017 RMK A01 T02500153  RH  055%=      5-min Rain = 0
KAM2 150422Z 14009KT 25/15 A3017 RMK A01 T02490152  RH  055%=      5-min Rain = 0
KAM2 150423Z 14009KT 25/15 A3017 RMK A01 T02490153  RH  055%=      5-min Rain = 0
KAM2 150424Z 14010KT 25/15 A3017 RMK A01 T02490153  RH  055%=      5-min Rain = 0
KAM2 150425Z 14009KT 25/15 A3018 RMK A01 T02490153  RH  055%=      5-min Rain = 0
KAM2 150426Z 15008KT 25/15 A3017 RMK A01 T02490152  RH  055%=      5-min Rain = 0
KAM2 150427Z 14009KT 25/15 A3017 RMK A01 T02490152  RH  055%=      5-min Rain = 0
KAM2 150428Z 14010KT 25/15 A3017 RMK A01 T02500153  RH  055%=      5-min Rain = 0
KAM2 150429Z 14008KT 25/15 A3017 RMK A01 T02500152  RH  055%=      5-min Rain = 0
KAM2 150430Z 14009KT 25/15 A3017 RMK A01 T02500152  RH  054%=      5-min Rain = 0
KAM2 150431Z 15010KT 25/15 A3017 RMK A01 T02500151  RH  054%=      5-min Rain = 0
KAM2 150432Z 15010KT 25/15 A3017 RMK A01 T02500151  RH  054%=      5-min Rain = 0
KAM2 150433Z 14011KT 25/15 A3017 RMK A01 T02500150  RH  054%=      5-min Rain = 0
KAM2 150434Z 15009KT 25/15 A3017 RMK A01 T02500149  RH  053%=      5-min Rain = 0
KAM2 150435Z 15010KT 25/15 A3017 RMK A01 T02500150  RH  054%=      5-min Rain = 0
KAM2 150436Z 14009KT 25/15 A3017 RMK A01 T02500149  RH  054%=      5-min Rain = 0
KAM2 150437Z 15010KT 25/15 A3018 RMK A01 T02500150  RH  054%=      5-min Rain = 0
KAM2 150438Z 15010KT 25/15 A3018 RMK A01 T02500149  RH  053%=      5-min Rain = 0
KAM2 150439Z 15011KT 25/15 A3018 RMK A01 T02500149  RH  053%=      5-min Rain = 0
KAM2 150440Z 15010KT 25/15 A3018 RMK A01 T02500149  RH  054%=      5-min Rain = 0
KAM2 150441Z 15011KT 25/15 A3017 RMK A01 T02500150  RH  054%=      5-min Rain = 0
KAM2 150442Z 15010KT 25/15 A3017 RMK A01 T02500150  RH  054%=      5-min Rain = 0
KAM2 150443Z 15011KT 25/15 A3017 RMK A01 T02500150  RH  054%=      5-min Rain = 0
KAM2 150444Z 15010KT 25/15 A3017 RMK A01 T02500150  RH  054%=      5-min Rain = 0
KAM2 150445Z 14011KT 25/15 A3017 RMK A01 T02500150  RH  054%=      5-min Rain = 0
KAM2 150446Z 15010KT 25/15 A3017 RMK A01 T02500150  RH  054%=      5-min Rain = 0
KAM2 150447Z 15010KT 25/15 A3017 RMK A01 T02490150  RH  054%=      5-min Rain = 0
KAM2 150448Z 15009KT 25/15 A3017 RMK A01 T02490151  RH  054%=      5-min Rain = 0
KAM2 150449Z 15009KT 25/15 A3017 RMK A01 T02490151  RH  054%=      5-min Rain = 0
KAM2 150450Z 14009KT 25/15 A3017 RMK A01 T02480151  RH  054%=      5-min Rain = 0
KAM2 150451Z 14009KT 25/15 A3017 RMK A01 T02480151  RH  055%=      5-min Rain = 0
KAM2 150452Z 14010KT 25/15 A3017 RMK A01 T02480151  RH  055%=      5-min Rain = 0
KAM2 150453Z 15009KT 25/15 A3017 RMK A01 T02480151  RH  055%=      5-min Rain = 0
KAM2 150454Z 14011KT 25/15 A3017 RMK A01 T02470151  RH  055%=      5-min Rain = 0
KAM2 150455Z 14010KT 25/15 A3017 RMK A01 T02470151  RH  055%=      5-min Rain = 0
KAM2 150456Z 14010KT 25/15 A3017 RMK A01 T02470151  RH  055%=      5-min Rain = 0
KAM2 150457Z 15010KT 25/15 A3017 RMK A01 T02470152  RH  055%=      5-min Rain = 0
KAM2 150458Z 14011KT 25/15 A3017 RMK A01 T02470152  RH  055%=      5-min Rain = 0
KAM2 150459Z 14011KT 25/15 A3017 RMK A01 T02470152  RH  055%=      5-min Rain = 0

Page generated in 0.1276 seconds.